Observation data for Palo Duro Canyon State Park Rim on 08/01/2020      Previous  Date       Current Mesonet Observations  Soil Data  Daily Summary Page  Observations in Plain Language
KPD1 010500Z 14004KT 23/10 A302 RMK A01 T02270099  RH  044%=      5-min Rain = 0
KPD1 010501Z 13004KT 23/10 A302 RMK A01 T02280098  RH  044%=      5-min Rain = 0
KPD1 010502Z 17001KT 23/10 A302 RMK A01 T02290099  RH  044%=      5-min Rain = 0
KPD1 010503Z 14002KT 23/10 A302 RMK A01 T02300099  RH  044%=      5-min Rain = 0
KPD1 010504Z 13003KT 23/10 A302 RMK A01 T02300099  RH  043%=      5-min Rain = 0
KPD1 010505Z 14003KT 23/10 A302 RMK A01 T02300099  RH  043%=      5-min Rain = 0
KPD1 010506Z 13003KT 23/10 A302 RMK A01 T02300099  RH  044%=      5-min Rain = 0
KPD1 010507Z 12003KT 23/10 A302 RMK A01 T02290099  RH  044%=      5-min Rain = 0
KPD1 010508Z 11002KT 23/10 A302 RMK A01 T02290099  RH  044%=      5-min Rain = 0
KPD1 010509Z 12002KT 23/10 A302 RMK A01 T02290099  RH  044%=      5-min Rain = 0
KPD1 010510Z 11001KT 23/10 A302 RMK A01 T02290099  RH  044%=      5-min Rain = 0
KPD1 010511Z 10001KT 23/10 A302 RMK A01 T02280100  RH  044%=      5-min Rain = 0
KPD1 010512Z 10001KT 23/10 A302 RMK A01 T02280102  RH  045%=      5-min Rain = 0
KPD1 010513Z 14001KT 23/10 A302 RMK A01 T02270101  RH  045%=      5-min Rain = 0
KPD1 010514Z 17001KT 23/10 A302 RMK A01 T02250101  RH  045%=      5-min Rain = 0
KPD1 010515Z 19002KT 22/10 A302 RMK A01 T02240100  RH  045%=      5-min Rain = 0
KPD1 010516Z 16003KT 22/10 A302 RMK A01 T02240099  RH  045%=      5-min Rain = 0
KPD1 010517Z 14002KT 22/10 A302 RMK A01 T02240099  RH  045%=      5-min Rain = 0
KPD1 010518Z 15002KT 22/10 A302 RMK A01 T02240100  RH  045%=      5-min Rain = 0
KPD1 010519Z 14002KT 22/10 A302 RMK A01 T02240100  RH  045%=      5-min Rain = 0
KPD1 010520Z 15003KT 22/10 A302 RMK A01 T02240099  RH  045%=      5-min Rain = 0
KPD1 010521Z 18003KT 22/10 A302 RMK A01 T02240099  RH  045%=      5-min Rain = 0
KPD1 010522Z 17003KT 22/10 A302 RMK A01 T02240099  RH  045%=      5-min Rain = 0
KPD1 010523Z 16002KT 23/10 A302 RMK A01 T02250099  RH  045%=      5-min Rain = 0
KPD1 010524Z 15002KT 23/10 A302 RMK A01 T02250100  RH  045%=      5-min Rain = 0
KPD1 010525Z 14003KT 23/10 A302 RMK A01 T02260100  RH  045%=      5-min Rain = 0
KPD1 010526Z 13004KT 23/10 A302 RMK A01 T02250099  RH  045%=      5-min Rain = 0
KPD1 010527Z 15003KT 23/10 A302 RMK A01 T02250100  RH  045%=      5-min Rain = 0
KPD1 010528Z 14004KT 23/10 A302 RMK A01 T02250099  RH  045%=      5-min Rain = 0
KPD1 010529Z 14004KT 23/10 A302 RMK A01 T02250098  RH  045%=      5-min Rain = 0
KPD1 010530Z 11003KT 23/10 A3019 RMK A01 T02250098  RH  044%=      5-min Rain = 0
KPD1 010531Z 12003KT 23/10 A3019 RMK A01 T02260098  RH  044%=      5-min Rain = 0
KPD1 010532Z 12003KT 23/10 A3019 RMK A01 T02260098  RH  044%=      5-min Rain = 0
KPD1 010533Z 10004KT 23/10 A3019 RMK A01 T02260097  RH  044%=      5-min Rain = 0
KPD1 010534Z 11004KT 23/10 A3019 RMK A01 T02270098  RH  044%=      5-min Rain = 0
KPD1 010535Z 12005KT 23/10 A3019 RMK A01 T02270098  RH  044%=      5-min Rain = 0
KPD1 010536Z 12005KT 23/10 A3019 RMK A01 T02260098  RH  044%=      5-min Rain = 0
KPD1 010537Z 12005KT 23/10 A3019 RMK A01 T02260099  RH  044%=      5-min Rain = 0
KPD1 010538Z 12003KT 23/10 A3019 RMK A01 T02260099  RH  044%=      5-min Rain = 0
KPD1 010539Z 11004KT 23/10 A3019 RMK A01 T02260099  RH  044%=      5-min Rain = 0
KPD1 010540Z 12006KT 23/10 A3019 RMK A01 T02260099  RH  044%=      5-min Rain = 0
KPD1 010541Z 12005KT 23/10 A3019 RMK A01 T02260100  RH  045%=      5-min Rain = 0
KPD1 010542Z 11004KT 23/10 A3019 RMK A01 T02260099  RH  044%=      5-min Rain = 0
KPD1 010543Z 12005KT 23/10 A3019 RMK A01 T02270099  RH  044%=      5-min Rain = 0
KPD1 010544Z 14004KT 23/10 A3019 RMK A01 T02280099  RH  044%=      5-min Rain = 0
KPD1 010545Z 13004KT 23/10 A3019 RMK A01 T02280099  RH  044%=      5-min Rain = 0
KPD1 010546Z 12004KT 23/10 A3019 RMK A01 T02280100  RH  044%=      5-min Rain = 0
KPD1 010547Z 13004KT 23/10 A3019 RMK A01 T02280100  RH  044%=      5-min Rain = 0
KPD1 010548Z 12005KT 23/10 A3019 RMK A01 T02270100  RH  044%=      5-min Rain = 0
KPD1 010549Z 12004KT 23/10 A3019 RMK A01 T02270100  RH  044%=      5-min Rain = 0
KPD1 010550Z 12004KT 23/10 A3019 RMK A01 T02270100  RH  045%=      5-min Rain = 0
KPD1 010551Z 13004KT 23/10 A3019 RMK A01 T02260100  RH  045%=      5-min Rain = 0
KPD1 010552Z 13005KT 23/10 A3018 RMK A01 T02260100  RH  045%=      5-min Rain = 0
KPD1 010553Z 13004KT 23/10 A3018 RMK A01 T02260100  RH  045%=      5-min Rain = 0
KPD1 010554Z 13005KT 23/10 A3018 RMK A01 T02250101  RH  045%=      5-min Rain = 0
KPD1 010555Z 13004KT 23/10 A3018 RMK A01 T02250100  RH  045%=      5-min Rain = 0
KPD1 010556Z 13004KT 22/10 A3018 RMK A01 T02240100  RH  045%=      5-min Rain = 0
KPD1 010557Z 12003KT 22/10 A3018 RMK A01 T02240100  RH  045%=      5-min Rain = 0
KPD1 010558Z 13003KT 22/10 A3018 RMK A01 T02240100  RH  045%=      5-min Rain = 0
KPD1 010559Z 14003KT 22/10 A3018 RMK A01 T02230100  RH  045%=      5-min Rain = 0
KPD1 010600Z 14003KT 22/10 A3018 RMK A01 T02230099  RH  045%=      5-min Rain = 0
KPD1 010601Z 13004KT 22/10 A3018 RMK A01 T02220099  RH  046%=      5-min Rain = 0
KPD1 010602Z 14004KT 22/10 A3018 RMK A01 T02220099  RH  046%=      5-min Rain = 0
KPD1 010603Z 13004KT 22/10 A3018 RMK A01 T02210099  RH  046%=      5-min Rain = 0
KPD1 010604Z 13005KT 22/10 A3018 RMK A01 T02210099  RH  046%=      5-min Rain = 0
KPD1 010605Z 14004KT 22/10 A3018 RMK A01 T02220099  RH  046%=      5-min Rain = 0
KPD1 010606Z 14004KT 22/10 A3018 RMK A01 T02220099  RH  046%=      5-min Rain = 0
KPD1 010607Z 13004KT 22/10 A3018 RMK A01 T02220100  RH  046%=      5-min Rain = 0
KPD1 010608Z 14004KT 22/10 A3018 RMK A01 T02210100  RH  046%=      5-min Rain = 0
KPD1 010609Z 14004KT 22/10 A3018 RMK A01 T02210100  RH  046%=      5-min Rain = 0
KPD1 010610Z 14004KT 22/10 A3018 RMK A01 T02200100  RH  046%=      5-min Rain = 0
KPD1 010611Z 15004KT 22/10 A3018 RMK A01 T02200100  RH  046%=      5-min Rain = 0
KPD1 010612Z 16004KT 22/10 A3018 RMK A01 T02200100  RH  046%=      5-min Rain = 0
KPD1 010613Z 16005KT 22/10 A3018 RMK A01 T02190100  RH  046%=      5-min Rain = 0
KPD1 010614Z 16005KT 22/10 A3018 RMK A01 T02190100  RH  047%=      5-min Rain = 0
KPD1 010615Z 16004KT 22/10 A3018 RMK A01 T02190100  RH  047%=      5-min Rain = 0
KPD1 010616Z 17005KT 22/10 A3018 RMK A01 T02190100  RH  047%=      5-min Rain = 0
KPD1 010617Z 16006KT 22/10 A3018 RMK A01 T02190101  RH  047%=      5-min Rain = 0
KPD1 010618Z 16005KT 22/10 A3018 RMK A01 T02190101  RH  047%=      5-min Rain = 0
KPD1 010619Z 15006KT 22/10 A3018 RMK A01 T02190101  RH  047%=      5-min Rain = 0
KPD1 010620Z 16005KT 22/10 A3018 RMK A01 T02210102  RH  047%=      5-min Rain = 0
KPD1 010621Z 15006KT 22/10 A3018 RMK A01 T02220102  RH  046%=      5-min Rain = 0
KPD1 010622Z 16007KT 22/10 A3018 RMK A01 T02220101  RH  046%=      5-min Rain = 0
KPD1 010623Z 16006KT 22/10 A3018 RMK A01 T02220101  RH  046%=      5-min Rain = 0
KPD1 010624Z 15006KT 22/10 A3018 RMK A01 T02230101  RH  046%=      5-min Rain = 0
KPD1 010625Z 15006KT 22/10 A3018 RMK A01 T02230101  RH  046%=      5-min Rain = 0
KPD1 010626Z 15006KT 22/10 A3018 RMK A01 T02240102  RH  046%=      5-min Rain = 0
KPD1 010627Z 14006KT 22/10 A3018 RMK A01 T02240102  RH  046%=      5-min Rain = 0
KPD1 010628Z 15005KT 22/10 A3018 RMK A01 T02240102  RH  046%=      5-min Rain = 0
KPD1 010629Z 15006KT 23/10 A3018 RMK A01 T02250102  RH  046%=      5-min Rain = 0
KPD1 010630Z 15006KT 23/10 A3018 RMK A01 T02250102  RH  046%=      5-min Rain = 0
KPD1 010631Z 14006KT 23/10 A3018 RMK A01 T02250103  RH  046%=      5-min Rain = 0
KPD1 010632Z 14005KT 23/10 A3018 RMK A01 T02250103  RH  046%=      5-min Rain = 0
KPD1 010633Z 15004KT 23/10 A3018 RMK A01 T02250103  RH  046%=      5-min Rain = 0
KPD1 010634Z 16004KT 22/10 A3018 RMK A01 T02240103  RH  046%=      5-min Rain = 0
KPD1 010635Z 14006KT 22/10 A3018 RMK A01 T02240103  RH  046%=      5-min Rain = 0
KPD1 010636Z 16005KT 22/10 A3018 RMK A01 T02240104  RH  046%=      5-min Rain = 0
KPD1 010637Z 14006KT 22/10 A3018 RMK A01 T02240104  RH  047%=      5-min Rain = 0
KPD1 010638Z 15004KT 22/10 A3018 RMK A01 T02240104  RH  047%=      5-min Rain = 0
KPD1 010639Z 14004KT 22/10 A3018 RMK A01 T02230104  RH  047%=      5-min Rain = 0
KPD1 010640Z 16004KT 22/10 A3018 RMK A01 T02230104  RH  047%=      5-min Rain = 0
KPD1 010641Z 15005KT 22/10 A3018 RMK A01 T02230104  RH  047%=      5-min Rain = 0
KPD1 010642Z 15007KT 22/10 A3018 RMK A01 T02230104  RH  047%=      5-min Rain = 0
KPD1 010643Z 15006KT 22/10 A3018 RMK A01 T02230104  RH  047%=      5-min Rain = 0
KPD1 010644Z 16004KT 22/10 A3018 RMK A01 T02230104  RH  047%=      5-min Rain = 0
KPD1 010645Z 16005KT 22/10 A3018 RMK A01 T02230104  RH  047%=      5-min Rain = 0
KPD1 010646Z 15004KT 22/10 A3018 RMK A01 T02230104  RH  047%=      5-min Rain = 0
KPD1 010647Z 14006KT 22/10 A3018 RMK A01 T02220104  RH  047%=      5-min Rain = 0
KPD1 010648Z 15004KT 22/10 A3018 RMK A01 T02220104  RH  047%=      5-min Rain = 0
KPD1 010649Z 15006KT 22/11 A3018 RMK A01 T02220105  RH  047%=      5-min Rain = 0
KPD1 010650Z 16005KT 22/11 A3018 RMK A01 T02210105  RH  048%=      5-min Rain = 0
KPD1 010651Z 15005KT 22/11 A3018 RMK A01 T02210105  RH  048%=      5-min Rain = 0
KPD1 010652Z 15005KT 22/11 A3018 RMK A01 T02210105  RH  048%=      5-min Rain = 0
KPD1 010653Z 16003KT 22/11 A3018 RMK A01 T02210105  RH  048%=      5-min Rain = 0
KPD1 010654Z 15004KT 22/11 A3018 RMK A01 T02200105  RH  048%=      5-min Rain = 0
KPD1 010655Z 16005KT 22/11 A3018 RMK A01 T02200105  RH  048%=      5-min Rain = 0
KPD1 010656Z 17003KT 22/11 A3018 RMK A01 T02190105  RH  048%=      5-min Rain = 0
KPD1 010657Z 16005KT 22/11 A3018 RMK A01 T02180105  RH  048%=      5-min Rain = 0
KPD1 010658Z 16005KT 22/11 A3018 RMK A01 T02170105  RH  049%=      5-min Rain = 0
KPD1 010659Z 16003KT 22/11 A3018 RMK A01 T02170105  RH  049%=      5-min Rain = 0
KPD1 010700Z 16003KT 22/11 A3018 RMK A01 T02170105  RH  049%=      5-min Rain = 0
KPD1 010701Z 17005KT 22/11 A3018 RMK A01 T02160105  RH  049%=      5-min Rain = 0
KPD1 010702Z 16005KT 22/11 A3018 RMK A01 T02160105  RH  049%=      5-min Rain = 0
KPD1 010703Z 17004KT 22/11 A3019 RMK A01 T02150105  RH  049%=      5-min Rain = 0
KPD1 010704Z 17004KT 22/11 A3019 RMK A01 T02150105  RH  050%=      5-min Rain = 0
KPD1 010705Z 17004KT 21/11 A3019 RMK A01 T02140105  RH  050%=      5-min Rain = 0
KPD1 010706Z 17004KT 21/11 A3019 RMK A01 T02130105  RH  050%=      5-min Rain = 0
KPD1 010707Z 16004KT 21/10 A3018 RMK A01 T02120104  RH  050%=      5-min Rain = 0
KPD1 010708Z 17004KT 21/11 A3018 RMK A01 T02120105  RH  050%=      5-min Rain = 0
KPD1 010709Z 17005KT 21/11 A3018 RMK A01 T02110105  RH  050%=      5-min Rain = 0
KPD1 010710Z 16004KT 21/11 A3018 RMK A01 T02110105  RH  051%=      5-min Rain = 0
KPD1 010711Z 16005KT 21/11 A3018 RMK A01 T02100105  RH  051%=      5-min Rain = 0
KPD1 010712Z 16004KT 21/11 A3018 RMK A01 T02100105  RH  051%=      5-min Rain = 0
KPD1 010713Z 16005KT 21/11 A3018 RMK A01 T02100105  RH  051%=      5-min Rain = 0
KPD1 010714Z 16005KT 21/11 A3018 RMK A01 T02090105  RH  051%=      5-min Rain = 0
KPD1 010715Z 16005KT 21/10 A3018 RMK A01 T02090104  RH  051%=      5-min Rain = 0
KPD1 010716Z 16005KT 21/10 A3018 RMK A01 T02090104  RH  051%=      5-min Rain = 0
KPD1 010717Z 15004KT 21/10 A3018 RMK A01 T02100104  RH  051%=      5-min Rain = 0
KPD1 010718Z 15005KT 21/10 A3018 RMK A01 T02100104  RH  051%=      5-min Rain = 0
KPD1 010719Z 15004KT 21/10 A3018 RMK A01 T02100104  RH  051%=      5-min Rain = 0
KPD1 010720Z 15004KT 21/11 A3018 RMK A01 T02100105  RH  051%=      5-min Rain = 0
KPD1 010721Z 16004KT 21/11 A3018 RMK A01 T02100105  RH  051%=      5-min Rain = 0
KPD1 010722Z 15004KT 21/10 A3018 RMK A01 T02100104  RH  051%=      5-min Rain = 0
KPD1 010723Z 15004KT 21/10 A3017 RMK A01 T02100104  RH  051%=      5-min Rain = 0
KPD1 010724Z 15004KT 21/10 A3017 RMK A01 T02090104  RH  051%=      5-min Rain = 0
KPD1 010725Z 16003KT 21/10 A3017 RMK A01 T02090104  RH  051%=      5-min Rain = 0
KPD1 010726Z 16004KT 21/10 A3017 RMK A01 T02090104  RH  051%=      5-min Rain = 0
KPD1 010727Z 15003KT 21/10 A3017 RMK A01 T02080104  RH  051%=      5-min Rain = 0
KPD1 010728Z 16003KT 21/10 A3017 RMK A01 T02080104  RH  051%=      5-min Rain = 0
KPD1 010729Z 16003KT 21/10 A3017 RMK A01 T02080104  RH  051%=      5-min Rain = 0
KPD1 010730Z 15003KT 21/10 A3017 RMK A01 T02070104  RH  051%=      5-min Rain = 0
KPD1 010731Z 16004KT 21/10 A3017 RMK A01 T02070103  RH  052%=      5-min Rain = 0
KPD1 010732Z 16003KT 21/10 A3017 RMK A01 T02060103  RH  052%=      5-min Rain = 0
KPD1 010733Z 16003KT 21/10 A3017 RMK A01 T02060103  RH  052%=      5-min Rain = 0
KPD1 010734Z 16003KT 21/10 A3017 RMK A01 T02050103  RH  052%=      5-min Rain = 0
KPD1 010735Z 16003KT 21/10 A3017 RMK A01 T02050103  RH  052%=      5-min Rain = 0
KPD1 010736Z 17003KT 20/10 A3017 RMK A01 T02040103  RH  052%=      5-min Rain = 0
KPD1 010737Z 17003KT 20/10 A3017 RMK A01 T02040103  RH  052%=      5-min Rain = 0
KPD1 010738Z 16003KT 20/10 A3016 RMK A01 T02030103  RH  052%=      5-min Rain = 0
KPD1 010739Z 17003KT 20/10 A3016 RMK A01 T02030103  RH  053%=      5-min Rain = 0
KPD1 010740Z 17003KT 20/10 A3016 RMK A01 T02020103  RH  053%=      5-min Rain = 0
KPD1 010741Z 17003KT 20/10 A3016 RMK A01 T02020103  RH  053%=      5-min Rain = 0
KPD1 010742Z 17004KT 20/10 A3016 RMK A01 T02010103  RH  053%=      5-min Rain = 0
KPD1 010743Z 17004KT 20/10 A3016 RMK A01 T02000103  RH  054%=      5-min Rain = 0
KPD1 010744Z 18003KT 20/10 A3016 RMK A01 T02000104  RH  054%=      5-min Rain = 0
KPD1 010745Z 18003KT 20/10 A3016 RMK A01 T01990104  RH  054%=      5-min Rain = 0
KPD1 010746Z 19003KT 20/10 A3016 RMK A01 T01990104  RH  054%=      5-min Rain = 0
KPD1 010747Z 20003KT 20/10 A3016 RMK A01 T01990104  RH  054%=      5-min Rain = 0
KPD1 010748Z 20003KT 20/10 A3016 RMK A01 T01980104  RH  054%=      5-min Rain = 0
KPD1 010749Z 21003KT 20/10 A3016 RMK A01 T01980104  RH  054%=      5-min Rain = 0
KPD1 010750Z 21004KT 20/10 A3016 RMK A01 T01980104  RH  055%=      5-min Rain = 0
KPD1 010751Z 21004KT 20/10 A3016 RMK A01 T01970104  RH  055%=      5-min Rain = 0
KPD1 010752Z 20004KT 20/10 A3016 RMK A01 T01970104  RH  055%=      5-min Rain = 0
KPD1 010753Z 20004KT 20/10 A3016 RMK A01 T01970104  RH  055%=      5-min Rain = 0
KPD1 010754Z 20004KT 20/10 A3016 RMK A01 T01960104  RH  055%=      5-min Rain = 0
KPD1 010755Z 20004KT 20/11 A3016 RMK A01 T01960105  RH  055%=      5-min Rain = 0
KPD1 010756Z 19004KT 20/11 A3016 RMK A01 T01960105  RH  056%=      5-min Rain = 0
KPD1 010757Z 19004KT 20/11 A3016 RMK A01 T01960105  RH  056%=      5-min Rain = 0
KPD1 010758Z 19004KT 20/11 A3016 RMK A01 T01960105  RH  056%=      5-min Rain = 0
KPD1 010759Z 19004KT 20/11 A3016 RMK A01 T01960105  RH  056%=      5-min Rain = 0
KPD1 010800Z 19004KT 20/11 A3016 RMK A01 T01960105  RH  056%=      5-min Rain = 0
KPD1 010801Z 19005KT 20/11 A3016 RMK A01 T01960106  RH  056%=      5-min Rain = 0
KPD1 010802Z 19005KT 20/11 A3016 RMK A01 T01950105  RH  056%=      5-min Rain = 0
KPD1 010803Z 20005KT 20/11 A3016 RMK A01 T01950106  RH  056%=      5-min Rain = 0
KPD1 010804Z 20005KT 19/11 A3016 RMK A01 T01940106  RH  056%=      5-min Rain = 0
KPD1 010805Z 20005KT 19/11 A3016 RMK A01 T01940106  RH  056%=      5-min Rain = 0
KPD1 010806Z 20005KT 20/11 A3016 RMK A01 T01950106  RH  056%=      5-min Rain = 0
KPD1 010807Z 20004KT 20/11 A3016 RMK A01 T01950106  RH  056%=      5-min Rain = 0
KPD1 010808Z 20005KT 20/11 A3016 RMK A01 T01950106  RH  056%=      5-min Rain = 0
KPD1 010809Z 20004KT 20/11 A3016 RMK A01 T01950106  RH  056%=      5-min Rain = 0
KPD1 010810Z 20004KT 20/11 A3016 RMK A01 T01950107  RH  056%=      5-min Rain = 0
KPD1 010811Z 21005KT 20/11 A3016 RMK A01 T01950106  RH  056%=      5-min Rain = 0
KPD1 010812Z 20006KT 20/11 A3016 RMK A01 T01950107  RH  056%=      5-min Rain = 0
KPD1 010813Z 20005KT 20/11 A3016 RMK A01 T01950107  RH  057%=      5-min Rain = 0
KPD1 010814Z 20006KT 20/11 A3016 RMK A01 T01960107  RH  056%=      5-min Rain = 0
KPD1 010815Z 21005KT 20/11 A3016 RMK A01 T01960107  RH  056%=      5-min Rain = 0
KPD1 010816Z 20006KT 20/11 A3016 RMK A01 T01970108  RH  056%=      5-min Rain = 0
KPD1 010817Z 20005KT 20/11 A3016 RMK A01 T01980108  RH  056%=      5-min Rain = 0
KPD1 010818Z 19006KT 20/11 A3016 RMK A01 T01990108  RH  056%=      5-min Rain = 0
KPD1 010819Z 20006KT 20/11 A3016 RMK A01 T01990108  RH  056%=      5-min Rain = 0
KPD1 010820Z 19006KT 20/11 A3016 RMK A01 T02000109  RH  056%=      5-min Rain = 0
KPD1 010821Z 20005KT 20/11 A3016 RMK A01 T02010109  RH  056%=      5-min Rain = 0
KPD1 010822Z 19004KT 20/11 A3016 RMK A01 T02020110  RH  055%=      5-min Rain = 0
KPD1 010823Z 20005KT 20/11 A3016 RMK A01 T02020109  RH  055%=      5-min Rain = 0
KPD1 010824Z 20006KT 20/11 A3016 RMK A01 T02020110  RH  055%=      5-min Rain = 0
KPD1 010825Z 20006KT 20/11 A3016 RMK A01 T02020110  RH  055%=      5-min Rain = 0
KPD1 010826Z 20006KT 20/11 A3016 RMK A01 T02020109  RH  055%=      5-min Rain = 0
KPD1 010827Z 21005KT 20/11 A3016 RMK A01 T02020109  RH  055%=      5-min Rain = 0
KPD1 010828Z 20005KT 20/11 A3016 RMK A01 T02030110  RH  055%=      5-min Rain = 0
KPD1 010829Z 21005KT 20/11 A3016 RMK A01 T02030110  RH  055%=      5-min Rain = 0
KPD1 010830Z 22005KT 20/11 A3016 RMK A01 T02030110  RH  055%=      5-min Rain = 0
KPD1 010831Z 22004KT 20/11 A3016 RMK A01 T02030110  RH  055%=      5-min Rain = 0
KPD1 010832Z 22004KT 20/11 A3016 RMK A01 T02020110  RH  055%=      5-min Rain = 0
KPD1 010833Z 23004KT 20/11 A3016 RMK A01 T02020110  RH  055%=      5-min Rain = 0
KPD1 010834Z 24004KT 20/11 A3016 RMK A01 T02000109  RH  056%=      5-min Rain = 0
KPD1 010835Z 24004KT 20/11 A3016 RMK A01 T02000109  RH  056%=      5-min Rain = 0
KPD1 010836Z 24004KT 20/11 A3016 RMK A01 T01990109  RH  056%=      5-min Rain = 0
KPD1 010837Z 25004KT 20/11 A3016 RMK A01 T01970109  RH  057%=      5-min Rain = 0
KPD1 010838Z 25005KT 20/11 A3016 RMK A01 T01960109  RH  057%=      5-min Rain = 0
KPD1 010839Z 24006KT 20/11 A3016 RMK A01 T01950109  RH  057%=      5-min Rain = 0
KPD1 010840Z 25005KT 20/11 A3016 RMK A01 T01950110  RH  058%=      5-min Rain = 0
KPD1 010841Z 27005KT 19/11 A3016 RMK A01 T01940109  RH  058%=      5-min Rain = 0
KPD1 010842Z 27006KT 19/11 A3016 RMK A01 T01940109  RH  058%=      5-min Rain = 0
KPD1 010843Z 26007KT 19/11 A3016 RMK A01 T01940110  RH  058%=      5-min Rain = 0
KPD1 010844Z 26006KT 19/11 A3016 RMK A01 T01930110  RH  059%=      5-min Rain = 0
KPD1 010845Z 26007KT 19/11 A3016 RMK A01 T01920110  RH  059%=      5-min Rain = 0
KPD1 010846Z 27006KT 19/11 A3016 RMK A01 T01910110  RH  059%=      5-min Rain = 0
KPD1 010847Z 26007KT 19/11 A3016 RMK A01 T01900110  RH  060%=      5-min Rain = 0
KPD1 010848Z 26007KT 19/11 A3017 RMK A01 T01890110  RH  060%=      5-min Rain = 0
KPD1 010849Z 27007KT 19/11 A3017 RMK A01 T01880110  RH  060%=      5-min Rain = 0
KPD1 010850Z 27007KT 19/11 A3017 RMK A01 T01880111  RH  061%=      5-min Rain = 0
KPD1 010851Z 27006KT 19/11 A3017 RMK A01 T01880111  RH  061%=      5-min Rain = 0
KPD1 010852Z 27005KT 19/11 A3017 RMK A01 T01880111  RH  061%=      5-min Rain = 0
KPD1 010853Z 27004KT 19/11 A3017 RMK A01 T01880111  RH  061%=      5-min Rain = 0
KPD1 010854Z 27005KT 19/11 A3016 RMK A01 T01870111  RH  061%=      5-min Rain = 0
KPD1 010855Z 26004KT 19/11 A3016 RMK A01 T01870111  RH  061%=      5-min Rain = 0
KPD1 010856Z 27004KT 19/11 A3016 RMK A01 T01870111  RH  061%=      5-min Rain = 0
KPD1 010857Z 27004KT 19/11 A3016 RMK A01 T01860111  RH  061%=      5-min Rain = 0
KPD1 010858Z 27004KT 19/11 A3016 RMK A01 T01860111  RH  061%=      5-min Rain = 0
KPD1 010859Z 27005KT 19/11 A3016 RMK A01 T01860111  RH  062%=      5-min Rain = 0
KPD1 010900Z 28004KT 19/11 A3016 RMK A01 T01850110  RH  062%=      5-min Rain = 0
KPD1 010901Z 27003KT 19/11 A3016 RMK A01 T01850110  RH  062%=      5-min Rain = 0
KPD1 010902Z 27004KT 19/11 A3016 RMK A01 T01850110  RH  062%=      5-min Rain = 0
KPD1 010903Z 26004KT 19/11 A3016 RMK A01 T01850110  RH  062%=      5-min Rain = 0
KPD1 010904Z 26004KT 19/11 A3016 RMK A01 T01850110  RH  062%=      5-min Rain = 0
KPD1 010905Z 26004KT 19/11 A3016 RMK A01 T01850110  RH  062%=      5-min Rain = 0
KPD1 010906Z 26004KT 18/11 A3016 RMK A01 T01840110  RH  062%=      5-min Rain = 0
KPD1 010907Z 26004KT 18/11 A3016 RMK A01 T01840110  RH  062%=      5-min Rain = 0
KPD1 010908Z 26004KT 18/11 A3016 RMK A01 T01840110  RH  062%=      5-min Rain = 0
KPD1 010909Z 26004KT 18/11 A3016 RMK A01 T01840110  RH  062%=      5-min Rain = 0
KPD1 010910Z 25004KT 18/11 A3016 RMK A01 T01840110  RH  062%=      5-min Rain = 0
KPD1 010911Z 26004KT 18/11 A3016 RMK A01 T01830110  RH  062%=      5-min Rain = 0
KPD1 010912Z 26004KT 18/11 A3016 RMK A01 T01830110  RH  062%=      5-min Rain = 0
KPD1 010913Z 26005KT 18/11 A3016 RMK A01 T01830110  RH  063%=      5-min Rain = 0
KPD1 010914Z 26006KT 18/11 A3016 RMK A01 T01820110  RH  063%=      5-min Rain = 0
KPD1 010915Z 26006KT 18/11 A3016 RMK A01 T01820110  RH  063%=      5-min Rain = 0
KPD1 010916Z 26005KT 18/11 A3016 RMK A01 T01820110  RH  063%=      5-min Rain = 0
KPD1 010917Z 25005KT 18/11 A3016 RMK A01 T01820110  RH  063%=      5-min Rain = 0
KPD1 010918Z 25004KT 18/11 A3016 RMK A01 T01810110  RH  063%=      5-min Rain = 0
KPD1 010919Z 25004KT 18/11 A3016 RMK A01 T01810110  RH  063%=      5-min Rain = 0
KPD1 010920Z 25004KT 18/11 A3015 RMK A01 T01820110  RH  063%=      5-min Rain = 0
KPD1 010921Z 24002KT 18/11 A3015 RMK A01 T01820110  RH  063%=      5-min Rain = 0
KPD1 010922Z 23002KT 18/11 A3016 RMK A01 T01830110  RH  063%=      5-min Rain = 0
KPD1 010923Z 22002KT 18/11 A3016 RMK A01 T01830110  RH  062%=      5-min Rain = 0
KPD1 010924Z 21002KT 18/11 A3016 RMK A01 T01830110  RH  062%=      5-min Rain = 0
KPD1 010925Z 18001KT 18/11 A3016 RMK A01 T01830110  RH  062%=      5-min Rain = 0
KPD1 010926Z 18002KT 18/11 A3016 RMK A01 T01830110  RH  062%=      5-min Rain = 0
KPD1 010927Z 17002KT 18/11 A3016 RMK A01 T01830110  RH  062%=      5-min Rain = 0
KPD1 010928Z 16002KT 18/11 A3016 RMK A01 T01830110  RH  062%=      5-min Rain = 0
KPD1 010929Z 14002KT 18/11 A3016 RMK A01 T01830110  RH  062%=      5-min Rain = 0
KPD1 010930Z 13002KT 18/11 A3016 RMK A01 T01840110  RH  062%=      5-min Rain = 0
KPD1 010931Z 11002KT 18/11 A3016 RMK A01 T01840110  RH  062%=      5-min Rain = 0
KPD1 010932Z 13002KT 19/11 A3016 RMK A01 T01850110  RH  062%=      5-min Rain = 0
KPD1 010933Z 14001KT 19/11 A3016 RMK A01 T01850110  RH  062%=      5-min Rain = 0
KPD1 010934Z 13002KT 19/11 A3016 RMK A01 T01850110  RH  061%=      5-min Rain = 0
KPD1 010935Z 12002KT 19/11 A3016 RMK A01 T01860110  RH  061%=      5-min Rain = 0
KPD1 010936Z 11003KT 19/11 A3016 RMK A01 T01860110  RH  061%=      5-min Rain = 0
KPD1 010937Z 09004KT 19/11 A3016 RMK A01 T01860111  RH  062%=      5-min Rain = 0
KPD1 010938Z 09003KT 19/11 A3016 RMK A01 T01860112  RH  062%=      5-min Rain = 0
KPD1 010939Z 09003KT 19/11 A3017 RMK A01 T01850111  RH  062%=      5-min Rain = 0
KPD1 010940Z 08003KT 19/11 A3017 RMK A01 T01850111  RH  062%=      5-min Rain = 0
KPD1 010941Z 08004KT 19/11 A3017 RMK A01 T01850111  RH  062%=      5-min Rain = 0
KPD1 010942Z 08005KT 19/11 A3017 RMK A01 T01850111  RH  062%=      5-min Rain = 0
KPD1 010943Z 07006KT 19/11 A3018 RMK A01 T01870112  RH  062%=      5-min Rain = 0
KPD1 010944Z 07005KT 19/11 A3018 RMK A01 T01880112  RH  061%=      5-min Rain = 0
KPD1 010945Z 05006KT 19/11 A3018 RMK A01 T01890113  RH  061%=      5-min Rain = 0
KPD1 010946Z 04007KT 19/11 A3019 RMK A01 T01910113  RH  060%=      5-min Rain = 0
KPD1 010947Z 05009KT 19/11 A3019 RMK A01 T01920113  RH  060%=      5-min Rain = 0
KPD1 010948Z 05008KT 19/11 A302 RMK A01 T01920112  RH  060%=      5-min Rain = 0
KPD1 010949Z 05005KT 19/11 A302 RMK A01 T01920112  RH  060%=      5-min Rain = 0
KPD1 010950Z 07009G14KT 19/11 A302 RMK A01 T01930112  RH  059%=      5-min Rain = 0
KPD1 010951Z 06008KT 19/11 A302 RMK A01 T01930113  RH  060%=      5-min Rain = 0
KPD1 010952Z 05007KT 19/11 A302 RMK A01 T01930114  RH  060%=      5-min Rain = 0
KPD1 010953Z 05007G12KT 19/12 A302 RMK A01 T01930115  RH  061%=      5-min Rain = 0
KPD1 010954Z 06006G17KT 19/12 A3021 RMK A01 T01930115  RH  061%=      5-min Rain = 0
KPD1 010955Z 05010G16KT 19/12 A3021 RMK A01 T01940115  RH  060%=      5-min Rain = 0
KPD1 010956Z 05014G20KT 20/12 A3021 RMK A01 T01960115  RH  059%=      5-min Rain = 0
KPD1 010957Z 04011KT 20/12 A3021 RMK A01 T01990117  RH  059%=      5-min Rain = 0
KPD1 010958Z 05010KT 20/12 A3021 RMK A01 T02000117  RH  059%=      5-min Rain = 0
KPD1 010959Z 04008KT 20/12 A3021 RMK A01 T02010117  RH  058%=      5-min Rain = 0
KPD1 011000Z 04009KT 20/12 A3021 RMK A01 T02020116  RH  058%=      5-min Rain = 0
KPD1 011001Z 04010KT 20/12 A3022 RMK A01 T02020115  RH  057%=      5-min Rain = 0
KPD1 011002Z 03008G16KT 20/12 A3022 RMK A01 T02030115  RH  057%=      5-min Rain = 0
KPD1 011003Z 03012KT 20/12 A3022 RMK A01 T02030115  RH  057%=      5-min Rain = 0
KPD1 011004Z 03011G16KT 20/12 A3022 RMK A01 T02030115  RH  057%=      5-min Rain = 0
KPD1 011005Z 02013KT 20/12 A3023 RMK A01 T02030117  RH  057%=      5-min Rain = 0
KPD1 011006Z 02012G18KT 20/12 A3023 RMK A01 T02030118  RH  058%=      5-min Rain = 0
KPD1 011007Z 02013G18KT 20/12 A3023 RMK A01 T02020118  RH  059%=      5-min Rain = 0
KPD1 011008Z 02014G19KT 20/12 A3023 RMK A01 T02010119  RH  059%=      5-min Rain = 0
KPD1 011009Z 02012G19KT 20/12 A3023 RMK A01 T02000120  RH  060%=      5-min Rain = 0
KPD1 011010Z 03008KT 20/12 A3023 RMK A01 T02000121  RH  060%=      5-min Rain = 0
KPD1 011011Z 02009KT 20/12 A3023 RMK A01 T02000122  RH  061%=      5-min Rain = 0
KPD1 011012Z 03011G16KT 20/12 A3023 RMK A01 T01990124  RH  062%=      5-min Rain = 0
KPD1 011013Z 03009KT 20/13 A3023 RMK A01 T01980127  RH  064%=      5-min Rain = 0
KPD1 011014Z 01008KT 20/13 A3023 RMK A01 T01960130  RH  066%=      5-min Rain = 0
KPD1 011015Z 01006KT 19/13 A3022 RMK A01 T01940132  RH  067%=      5-min Rain = 0
KPD1 011016Z 01002KT 19/13 A3022 RMK A01 T01910132  RH  068%=      5-min Rain = 0.01
KPD1 011017Z 15001KT 19/13 A3021 RMK A01 T01900134  RH  070%=      5-min Rain = 0.01
KPD1 011018Z 16004KT 19/14 A302 RMK A01 T01870141  RH  075%=      5-min Rain = 0.01
KPD1 011019Z 16007KT 18/14 A3019 RMK A01 T01830142  RH  077%=      5-min Rain = 0.02
KPD1 011020Z 15008KT 18/15 A3018 RMK A01 T01790145  RH  081%=      5-min Rain = 0.02
KPD1 011021Z 14009KT 18/15 A3018 RMK A01 T01750145  RH  083%=      5-min Rain = 0
KPD1 011022Z 13008KT 17/14 A3018 RMK A01 T01720143  RH  083%=      5-min Rain = 0.01
KPD1 011023Z 13008KT 17/14 A3018 RMK A01 T01710143  RH  084%=      5-min Rain = 0
KPD1 011024Z 13007KT 17/14 A3018 RMK A01 T01700143  RH  084%=      5-min Rain = 0
KPD1 011025Z 14006KT 17/14 A3018 RMK A01 T01690143  RH  085%=      5-min Rain = 0
KPD1 011026Z 16004KT 17/14 A3018 RMK A01 T01690144  RH  085%=      5-min Rain = 0
KPD1 011027Z 18005KT 17/15 A3018 RMK A01 T01690145  RH  086%=      5-min Rain = 0
KPD1 011028Z 19006KT 17/15 A3018 RMK A01 T01690147  RH  087%=      5-min Rain = 0
KPD1 011029Z 20006KT 17/15 A3018 RMK A01 T01680146  RH  087%=      5-min Rain = 0
KPD1 011030Z 19008KT 17/15 A3018 RMK A01 T01680146  RH  087%=      5-min Rain = 0
KPD1 011031Z 19006KT 17/15 A3018 RMK A01 T01680145  RH  086%=      5-min Rain = 0
KPD1 011032Z 19006KT 17/15 A3018 RMK A01 T01690146  RH  086%=      5-min Rain = 0
KPD1 011033Z 19006KT 17/15 A3018 RMK A01 T01690147  RH  087%=      5-min Rain = 0.01
KPD1 011034Z 19005KT 17/15 A3018 RMK A01 T01690147  RH  087%=      5-min Rain = 0
KPD1 011035Z 18004KT 17/15 A3018 RMK A01 T01690148  RH  087%=      5-min Rain = 0
KPD1 011036Z 18004KT 17/15 A3018 RMK A01 T01680148  RH  088%=      5-min Rain = 0
KPD1 011037Z 18004KT 17/15 A3018 RMK A01 T01680149  RH  088%=      5-min Rain = 0
KPD1 011038Z 17003KT 17/15 A3019 RMK A01 T01680148  RH  088%=      5-min Rain = 0
KPD1 011039Z 18002KT 17/15 A3019 RMK A01 T01680150  RH  089%=      5-min Rain = 0
KPD1 011040Z 18003KT 17/15 A3019 RMK A01 T01680151  RH  089%=      5-min Rain = 0
KPD1 011041Z 19003KT 17/15 A3019 RMK A01 T01680151  RH  089%=      5-min Rain = 0
KPD1 011042Z 21002KT 17/15 A3019 RMK A01 T01680150  RH  089%=      5-min Rain = 0
KPD1 011043Z 20001KT 17/15 A3019 RMK A01 T01680151  RH  090%=      5-min Rain = 0
KPD1 011044Z 19002KT 17/15 A3019 RMK A01 T01680153  RH  091%=      5-min Rain = 0
KPD1 011045Z 18005KT 17/15 A3018 RMK A01 T01680154  RH  092%=      5-min Rain = 0.01
KPD1 011046Z 19006KT 17/15 A3018 RMK A01 T01680154  RH  092%=      5-min Rain = 0
KPD1 011047Z 19006KT 17/15 A3018 RMK A01 T01670154  RH  092%=      5-min Rain = 0
KPD1 011048Z 18005KT 17/15 A3018 RMK A01 T01670151  RH  091%=      5-min Rain = 0
KPD1 011049Z 20006KT 17/15 A3018 RMK A01 T01680147  RH  088%=      5-min Rain = 0
KPD1 011050Z 21005KT 17/15 A3018 RMK A01 T01680146  RH  087%=      5-min Rain = 0
KPD1 011051Z 21005KT 17/15 A3018 RMK A01 T01690146  RH  086%=      5-min Rain = 0.01
KPD1 011052Z 22006KT 17/15 A3018 RMK A01 T01690147  RH  086%=      5-min Rain = 0
KPD1 011053Z 23006KT 17/15 A3018 RMK A01 T01690148  RH  087%=      5-min Rain = 0
KPD1 011054Z 23006KT 17/15 A3017 RMK A01 T01690148  RH  088%=      5-min Rain = 0
KPD1 011055Z 22006KT 17/15 A3017 RMK A01 T01670148  RH  088%=      5-min Rain = 0
KPD1 011056Z 22006KT 17/15 A3017 RMK A01 T01670149  RH  089%=      5-min Rain = 0
KPD1 011057Z 22007KT 17/15 A3017 RMK A01 T01660148  RH  089%=      5-min Rain = 0
KPD1 011058Z 23007KT 17/15 A3017 RMK A01 T01650149  RH  090%=      5-min Rain = 0
KPD1 011059Z 23007KT 17/15 A3017 RMK A01 T01650148  RH  090%=      5-min Rain = 0
KPD1 011100Z 23007KT 17/15 A3017 RMK A01 T01650148  RH  090%=      5-min Rain = 0
KPD1 011101Z 23007KT 17/15 A3017 RMK A01 T01650148  RH  090%=      5-min Rain = 0
KPD1 011102Z 22008KT 17/15 A3017 RMK A01 T01650149  RH  090%=      5-min Rain = 0
KPD1 011103Z 22008KT 17/15 A3016 RMK A01 T01650148  RH  089%=      5-min Rain = 0
KPD1 011104Z 21007KT 17/15 A3016 RMK A01 T01660148  RH  089%=      5-min Rain = 0
KPD1 011105Z 21007KT 17/15 A3016 RMK A01 T01660147  RH  089%=      5-min Rain = 0
KPD1 011106Z 21008KT 17/15 A3016 RMK A01 T01660146  RH  088%=      5-min Rain = 0
KPD1 011107Z 20007KT 17/15 A3016 RMK A01 T01660146  RH  088%=      5-min Rain = 0
KPD1 011108Z 20006KT 17/15 A3016 RMK A01 T01670145  RH  087%=      5-min Rain = 0
KPD1 011109Z 20006KT 17/15 A3016 RMK A01 T01660145  RH  087%=      5-min Rain = 0
KPD1 011110Z 19006KT 17/15 A3016 RMK A01 T01670145  RH  087%=      5-min Rain = 0
KPD1 011111Z 20006KT 17/15 A3016 RMK A01 T01670146  RH  088%=      5-min Rain = 0
KPD1 011112Z 20005KT 17/15 A3016 RMK A01 T01670147  RH  088%=      5-min Rain = 0
KPD1 011113Z 20005KT 17/15 A3016 RMK A01 T01660147  RH  088%=      5-min Rain = 0
KPD1 011114Z 20005KT 17/15 A3016 RMK A01 T01660146  RH  088%=      5-min Rain = 0
KPD1 011115Z 20005KT 17/15 A3016 RMK A01 T01660145  RH  088%=      5-min Rain = 0
KPD1 011116Z 20004KT 17/15 A3016 RMK A01 T01660145  RH  088%=      5-min Rain = 0
KPD1 011117Z 20004KT 17/15 A3016 RMK A01 T01660145  RH  087%=      5-min Rain = 0
KPD1 011118Z 21005KT 17/15 A3016 RMK A01 T01660145  RH  087%=      5-min Rain = 0
KPD1 011119Z 21005KT 17/14 A3016 RMK A01 T01650144  RH  087%=      5-min Rain = 0
KPD1 011120Z 21004KT 17/14 A3016 RMK A01 T01650144  RH  087%=      5-min Rain = 0
KPD1 011121Z 21004KT 17/14 A3016 RMK A01 T01650143  RH  087%=      5-min Rain = 0
KPD1 011122Z 22004KT 17/14 A3016 RMK A01 T01660144  RH  087%=      5-min Rain = 0
KPD1 011123Z 22004KT 17/15 A3016 RMK A01 T01660145  RH  087%=      5-min Rain = 0
KPD1 011124Z 21004KT 17/15 A3016 RMK A01 T01660145  RH  088%=      5-min Rain = 0
KPD1 011125Z 21005KT 17/14 A3016 RMK A01 T01650144  RH  087%=      5-min Rain = 0
KPD1 011126Z 20004KT 17/14 A3016 RMK A01 T01650144  RH  087%=      5-min Rain = 0
KPD1 011127Z 20004KT 17/14 A3016 RMK A01 T01650143  RH  087%=      5-min Rain = 0
KPD1 011128Z 20004KT 17/14 A3016 RMK A01 T01650143  RH  087%=      5-min Rain = 0
KPD1 011129Z 21004KT 17/14 A3016 RMK A01 T01650143  RH  086%=      5-min Rain = 0
KPD1 011130Z 20005KT 17/14 A3016 RMK A01 T01660143  RH  087%=      5-min Rain = 0
KPD1 011131Z 21004KT 17/14 A3016 RMK A01 T01650144  RH  087%=      5-min Rain = 0
KPD1 011132Z 21004KT 17/14 A3016 RMK A01 T01660144  RH  087%=      5-min Rain = 0
KPD1 011133Z 20004KT 17/14 A3016 RMK A01 T01660144  RH  087%=      5-min Rain = 0
KPD1 011134Z 20003KT 17/15 A3016 RMK A01 T01660145  RH  087%=      5-min Rain = 0
KPD1 011135Z 20004KT 17/14 A3016 RMK A01 T01660144  RH  087%=      5-min Rain = 0
KPD1 011136Z 21003KT 17/14 A3016 RMK A01 T01650144  RH  087%=      5-min Rain = 0
KPD1 011137Z 21003KT 17/15 A3016 RMK A01 T01650145  RH  088%=      5-min Rain = 0
KPD1 011138Z 21003KT 17/15 A3016 RMK A01 T01650145  RH  088%=      5-min Rain = 0
KPD1 011139Z 22004KT 16/15 A3016 RMK A01 T01640145  RH  089%=      5-min Rain = 0
KPD1 011140Z 23004KT 16/15 A3016 RMK A01 T01640145  RH  089%=      5-min Rain = 0
KPD1 011141Z 23004KT 16/15 A3016 RMK A01 T01630145  RH  089%=      5-min Rain = 0
KPD1 011142Z 24004KT 16/15 A3016 RMK A01 T01640145  RH  088%=      5-min Rain = 0
KPD1 011143Z 23004KT 16/15 A3016 RMK A01 T01640145  RH  088%=      5-min Rain = 0
KPD1 011144Z 23004KT 16/15 A3016 RMK A01 T01640145  RH  089%=      5-min Rain = 0
KPD1 011145Z 23004KT 16/14 A3016 RMK A01 T01640144  RH  088%=      5-min Rain = 0
KPD1 011146Z 22004KT 16/14 A3016 RMK A01 T01640144  RH  088%=      5-min Rain = 0
KPD1 011147Z 22004KT 17/14 A3016 RMK A01 T01650143  RH  087%=      5-min Rain = 0
KPD1 011148Z 21005KT 17/14 A3016 RMK A01 T01650141  RH  086%=      5-min Rain = 0
KPD1 011149Z 21005KT 17/14 A3016 RMK A01 T01660142  RH  086%=      5-min Rain = 0
KPD1 011150Z 21006KT 17/14 A3016 RMK A01 T01650142  RH  086%=      5-min Rain = 0
KPD1 011151Z 21006KT 17/14 A3016 RMK A01 T01650143  RH  087%=      5-min Rain = 0
KPD1 011152Z 20006KT 16/14 A3016 RMK A01 T01640143  RH  087%=      5-min Rain = 0
KPD1 011153Z 20006KT 16/14 A3016 RMK A01 T01640142  RH  087%=      5-min Rain = 0
KPD1 011154Z 20006KT 16/14 A3016 RMK A01 T01640142  RH  087%=      5-min Rain = 0
KPD1 011155Z 20006KT 17/14 A3016 RMK A01 T01650142  RH  086%=      5-min Rain = 0
KPD1 011156Z 20006KT 17/14 A3016 RMK A01 T01650142  RH  086%=      5-min Rain = 0
KPD1 011157Z 20006KT 17/14 A3016 RMK A01 T01660142  RH  086%=      5-min Rain = 0
KPD1 011158Z 20005KT 17/14 A3016 RMK A01 T01660141  RH  085%=      5-min Rain = 0
KPD1 011159Z 21004KT 17/14 A3016 RMK A01 T01660141  RH  085%=      5-min Rain = 0
KPD1 011200Z 21004KT 17/14 A3016 RMK A01 T01660141  RH  085%=      5-min Rain = 0
KPD1 011201Z 21003KT 17/14 A3016 RMK A01 T01670142  RH  085%=      5-min Rain = 0
KPD1 011202Z 21002KT 17/14 A3016 RMK A01 T01670141  RH  085%=      5-min Rain = 0
KPD1 011203Z 20002KT 17/14 A3016 RMK A01 T01660141  RH  085%=      5-min Rain = 0
KPD1 011204Z 21002KT 17/15 A3016 RMK A01 T01670145  RH  087%=      5-min Rain = 0
KPD1 011205Z 22002KT 17/15 A3016 RMK A01 T01670151  RH  090%=      5-min Rain = 0
KPD1 011206Z 23002KT 17/15 A3016 RMK A01 T01660150  RH  090%=      5-min Rain = 0
KPD1 011207Z 25001KT 17/15 A3016 RMK A01 T01650150  RH  090%=      5-min Rain = 0
KPD1 011208Z 26002KT 16/15 A3017 RMK A01 T01640150  RH  091%=      5-min Rain = 0
KPD1 011209Z 26002KT 16/15 A3017 RMK A01 T01630146  RH  090%=      5-min Rain = 0
KPD1 011210Z 26001KT 16/15 A3017 RMK A01 T01640147  RH  090%=      5-min Rain = 0
KPD1 011211Z 24002KT 16/15 A3017 RMK A01 T01640149  RH  091%=      5-min Rain = 0
KPD1 011212Z 24002KT 16/15 A3017 RMK A01 T01640148  RH  091%=      5-min Rain = 0
KPD1 011213Z 23002KT 16/15 A3017 RMK A01 T01630146  RH  089%=      5-min Rain = 0
KPD1 011214Z 22002KT 16/14 A3017 RMK A01 T01640144  RH  088%=      5-min Rain = 0
KPD1 011215Z 22003KT 16/15 A3017 RMK A01 T01640146  RH  089%=      5-min Rain = 0
KPD1 011216Z 21004KT 16/15 A3017 RMK A01 T01630145  RH  089%=      5-min Rain = 0
KPD1 011217Z 22004KT 16/14 A3017 RMK A01 T01620143  RH  088%=      5-min Rain = 0
KPD1 011218Z 22005KT 16/14 A3017 RMK A01 T01620141  RH  087%=      5-min Rain = 0
KPD1 011219Z 21005KT 16/14 A3017 RMK A01 T01630141  RH  087%=      5-min Rain = 0
KPD1 011220Z 21005KT 16/14 A3017 RMK A01 T01640140  RH  086%=      5-min Rain = 0
KPD1 011221Z 21004KT 17/14 A3017 RMK A01 T01650140  RH  085%=      5-min Rain = 0
KPD1 011222Z 22004KT 17/14 A3017 RMK A01 T01660141  RH  085%=      5-min Rain = 0
KPD1 011223Z 22003KT 17/14 A3017 RMK A01 T01650140  RH  085%=      5-min Rain = 0
KPD1 011224Z 23004KT 17/14 A3017 RMK A01 T01660142  RH  085%=      5-min Rain = 0
KPD1 011225Z 23004KT 17/14 A3017 RMK A01 T01660142  RH  086%=      5-min Rain = 0
KPD1 011226Z 22003KT 17/14 A3017 RMK A01 T01660142  RH  086%=      5-min Rain = 0
KPD1 011227Z 21004KT 17/14 A3017 RMK A01 T01660141  RH  085%=      5-min Rain = 0
KPD1 011228Z 22003KT 17/14 A3017 RMK A01 T01660140  RH  084%=      5-min Rain = 0
KPD1 011229Z 22003KT 17/14 A3017 RMK A01 T01670141  RH  085%=      5-min Rain = 0
KPD1 011230Z 22004KT 17/14 A3017 RMK A01 T01670142  RH  086%=      5-min Rain = 0
KPD1 011231Z 22005KT 17/14 A3017 RMK A01 T01670140  RH  084%=      5-min Rain = 0
KPD1 011232Z 22005KT 17/14 A3017 RMK A01 T01680140  RH  084%=      5-min Rain = 0
KPD1 011233Z 23005KT 17/14 A3017 RMK A01 T01690138  RH  082%=      5-min Rain = 0
KPD1 011234Z 23005KT 17/14 A3017 RMK A01 T01700140  RH  083%=      5-min Rain = 0
KPD1 011235Z 22005KT 17/14 A3017 RMK A01 T01700139  RH  082%=      5-min Rain = 0
KPD1 011236Z 22005KT 17/14 A3017 RMK A01 T01700139  RH  082%=      5-min Rain = 0
KPD1 011237Z 22005KT 17/14 A3017 RMK A01 T01710142  RH  083%=      5-min Rain = 0
KPD1 011238Z 23005KT 17/14 A3017 RMK A01 T01710142  RH  083%=      5-min Rain = 0
KPD1 011239Z 23006KT 17/14 A3017 RMK A01 T01710141  RH  083%=      5-min Rain = 0
KPD1 011240Z 23006KT 17/14 A3017 RMK A01 T01710142  RH  083%=      5-min Rain = 0
KPD1 011241Z 23005KT 17/14 A3017 RMK A01 T01710142  RH  083%=      5-min Rain = 0
KPD1 011242Z 23006KT 17/14 A3017 RMK A01 T01720141  RH  082%=      5-min Rain = 0
KPD1 011243Z 23005KT 17/14 A3017 RMK A01 T01730139  RH  080%=      5-min Rain = 0
KPD1 011244Z 23005KT 18/14 A3017 RMK A01 T01750142  RH  081%=      5-min Rain = 0
KPD1 011245Z 23005KT 18/14 A3017 RMK A01 T01750142  RH  081%=      5-min Rain = 0
KPD1 011246Z 23005KT 18/14 A3017 RMK A01 T01760142  RH  080%=      5-min Rain = 0
KPD1 011247Z 22005KT 18/14 A3017 RMK A01 T01770144  RH  081%=      5-min Rain = 0
KPD1 011248Z 22004KT 18/14 A3017 RMK A01 T01790142  RH  079%=      5-min Rain = 0
KPD1 011249Z 21004KT 18/14 A3017 RMK A01 T01800140  RH  078%=      5-min Rain = 0
KPD1 011250Z 20004KT 18/14 A3017 RMK A01 T01810141  RH  077%=      5-min Rain = 0
KPD1 011251Z 20004KT 18/14 A3017 RMK A01 T01820142  RH  077%=      5-min Rain = 0
KPD1 011252Z 20003KT 18/14 A3017 RMK A01 T01830142  RH  077%=      5-min Rain = 0
KPD1 011253Z 20003KT 18/14 A3017 RMK A01 T01830143  RH  077%=      5-min Rain = 0
KPD1 011254Z 21003KT 18/14 A3017 RMK A01 T01840143  RH  077%=      5-min Rain = 0
KPD1 011255Z 21003KT 19/14 A3017 RMK A01 T01850144  RH  077%=      5-min Rain = 0
KPD1 011256Z 21003KT 19/15 A3017 RMK A01 T01860147  RH  078%=      5-min Rain = 0
KPD1 011257Z 22003KT 19/15 A3017 RMK A01 T01870146  RH  077%=      5-min Rain = 0
KPD1 011258Z 22003KT 19/15 A3017 RMK A01 T01880145  RH  076%=      5-min Rain = 0
KPD1 011259Z 22003KT 19/15 A3017 RMK A01 T01890145  RH  076%=      5-min Rain = 0
KPD1 011300Z 22003KT 19/15 A3017 RMK A01 T01890146  RH  076%=      5-min Rain = 0
KPD1 011301Z 22004KT 19/15 A3017 RMK A01 T01900145  RH  075%=      5-min Rain = 0
KPD1 011302Z 22003KT 19/15 A3017 RMK A01 T01900146  RH  076%=      5-min Rain = 0
KPD1 011303Z 23003KT 19/15 A3017 RMK A01 T01910147  RH  076%=      5-min Rain = 0
KPD1 011304Z 23003KT 19/15 A3018 RMK A01 T01910146  RH  075%=      5-min Rain = 0
KPD1 011305Z 24004KT 19/15 A3018 RMK A01 T01920147  RH  075%=      5-min Rain = 0
KPD1 011306Z 23003KT 19/15 A3018 RMK A01 T01920149  RH  076%=      5-min Rain = 0
KPD1 011307Z 22003KT 19/15 A3018 RMK A01 T01930149  RH  076%=      5-min Rain = 0
KPD1 011308Z 23003KT 19/15 A3018 RMK A01 T01930149  RH  076%=      5-min Rain = 0
KPD1 011309Z 23004KT 19/15 A3018 RMK A01 T01930148  RH  075%=      5-min Rain = 0
KPD1 011310Z 23004KT 19/15 A3018 RMK A01 T01930145  RH  074%=      5-min Rain = 0
KPD1 011311Z 23004KT 19/15 A3018 RMK A01 T01940145  RH  073%=      5-min Rain = 0
KPD1 011312Z 22004KT 19/15 A3018 RMK A01 T01940145  RH  073%=      5-min Rain = 0
KPD1 011313Z 23003KT 20/15 A3018 RMK A01 T01950150  RH  075%=      5-min Rain = 0
KPD1 011314Z 23003KT 20/15 A3018 RMK A01 T01960147  RH  073%=      5-min Rain = 0
KPD1 011315Z 23003KT 20/15 A3018 RMK A01 T01970148  RH  073%=      5-min Rain = 0
KPD1 011316Z 24004KT 20/15 A3018 RMK A01 T01980149  RH  073%=      5-min Rain = 0
KPD1 011317Z 23004KT 20/15 A3018 RMK A01 T01990145  RH  071%=      5-min Rain = 0
KPD1 011318Z 23004KT 20/15 A3018 RMK A01 T02010145  RH  070%=      5-min Rain = 0
KPD1 011319Z 24004KT 20/15 A3018 RMK A01 T02020145  RH  070%=      5-min Rain = 0
KPD1 011320Z 24004KT 20/14 A3018 RMK A01 T02030142  RH  068%=      5-min Rain = 0
KPD1 011321Z 25003KT 20/14 A3018 RMK A01 T02040143  RH  068%=      5-min Rain = 0
KPD1 011322Z 25003KT 21/15 A3018 RMK A01 T02050147  RH  069%=      5-min Rain = 0
KPD1 011323Z 25003KT 21/15 A3018 RMK A01 T02050148  RH  070%=      5-min Rain = 0
KPD1 011324Z 25003KT 21/15 A3018 RMK A01 T02060150  RH  070%=      5-min Rain = 0
KPD1 011325Z 26004KT 21/15 A3018 RMK A01 T02060147  RH  069%=      5-min Rain = 0
KPD1 011326Z 25004KT 21/15 A3018 RMK A01 T02070149  RH  069%=      5-min Rain = 0
KPD1 011327Z 25003KT 21/15 A3018 RMK A01 T02080148  RH  069%=      5-min Rain = 0
KPD1 011328Z 25003KT 21/15 A3018 RMK A01 T02090150  RH  069%=      5-min Rain = 0
KPD1 011329Z 25003KT 21/15 A3018 RMK A01 T02090149  RH  068%=      5-min Rain = 0
KPD1 011330Z 25004KT 21/15 A3018 RMK A01 T02100150  RH  068%=      5-min Rain = 0
KPD1 011331Z 25003KT 21/15 A3018 RMK A01 T02110149  RH  068%=      5-min Rain = 0
KPD1 011332Z 25003KT 21/15 A3018 RMK A01 T02120150  RH  067%=      5-min Rain = 0
KPD1 011333Z 24003KT 21/15 A3018 RMK A01 T02130149  RH  067%=      5-min Rain = 0
KPD1 011334Z 24003KT 21/15 A3018 RMK A01 T02140147  RH  066%=      5-min Rain = 0
KPD1 011335Z 23002KT 22/15 A3018 RMK A01 T02150145  RH  064%=      5-min Rain = 0
KPD1 011336Z 25001KT 22/15 A3018 RMK A01 T02160145  RH  064%=      5-min Rain = 0
KPD1 011337Z 24001KT 22/15 A3018 RMK A01 T02170151  RH  066%=      5-min Rain = 0
KPD1 011338Z 25001KT 22/16 A3018 RMK A01 T02180155  RH  067%=      5-min Rain = 0
KPD1 011339Z 25003KT 22/15 A3018 RMK A01 T02190152  RH  066%=      5-min Rain = 0
KPD1 011340Z 23003KT 22/15 A3018 RMK A01 T02200150  RH  064%=      5-min Rain = 0
KPD1 011341Z 22001KT 22/15 A3018 RMK A01 T02210153  RH  065%=      5-min Rain = 0
KPD1 011342Z 23002KT 22/15 A3018 RMK A01 T02230154  RH  065%=      5-min Rain = 0
KPD1 011343Z 24003KT 22/15 A3018 RMK A01 T02230153  RH  064%=      5-min Rain = 0
KPD1 011344Z 23004KT 22/15 A3018 RMK A01 T02240147  RH  062%=      5-min Rain = 0
KPD1 011345Z 24004KT 23/15 A3018 RMK A01 T02250145  RH  061%=      5-min Rain = 0
KPD1 011346Z 23003KT 23/14 A3018 RMK A01 T02250144  RH  060%=      5-min Rain = 0
KPD1 011347Z 23003KT 23/15 A3018 RMK A01 T02250148  RH  062%=      5-min Rain = 0
KPD1 011348Z 21003KT 23/15 A3018 RMK A01 T02250148  RH  062%=      5-min Rain = 0
KPD1 011349Z 23003KT 23/15 A3018 RMK A01 T02260152  RH  063%=      5-min Rain = 0
KPD1 011350Z 23002KT 23/15 A3018 RMK A01 T02260149  RH  062%=      5-min Rain = 0
KPD1 011351Z 24004KT 23/15 A3018 RMK A01 T02270153  RH  063%=      5-min Rain = 0
KPD1 011352Z 24002KT 23/15 A3018 RMK A01 T02270149  RH  061%=      5-min Rain = 0
KPD1 011353Z 22002KT 23/15 A3018 RMK A01 T02280154  RH  063%=      5-min Rain = 0
KPD1 011354Z 22003KT 23/16 A3018 RMK A01 T02290158  RH  064%=      5-min Rain = 0
KPD1 011355Z 22003KT 23/15 A3018 RMK A01 T02290154  RH  062%=      5-min Rain = 0
KPD1 011356Z 22003KT 23/15 A3018 RMK A01 T02300152  RH  061%=      5-min Rain = 0
KPD1 011357Z 22003KT 23/15 A3018 RMK A01 T02300152  RH  061%=      5-min Rain = 0
KPD1 011358Z 22003KT 23/15 A3018 RMK A01 T02310152  RH  061%=      5-min Rain = 0
KPD1 011359Z 21003KT 23/15 A3018 RMK A01 T02300148  RH  060%=      5-min Rain = 0
KPD1 011400Z 22002KT 23/15 A3018 RMK A01 T02310151  RH  061%=      5-min Rain = 0
KPD1 011401Z 22002KT 23/15 A3018 RMK A01 T02310153  RH  061%=      5-min Rain = 0
KPD1 011402Z 21001KT 23/16 A3018 RMK A01 T02330156  RH  062%=      5-min Rain = 0
KPD1 011403Z 22002KT 23/16 A3018 RMK A01 T02340158  RH  062%=      5-min Rain = 0
KPD1 011404Z 21002KT 24/15 A3018 RMK A01 T02350154  RH  060%=      5-min Rain = 0
KPD1 011405Z 22003KT 24/15 A3018 RMK A01 T02360153  RH  059%=      5-min Rain = 0
KPD1 011406Z 22003KT 24/15 A3018 RMK A01 T02360149  RH  058%=      5-min Rain = 0
KPD1 011407Z 23002KT 24/15 A3018 RMK A01 T02360151  RH  059%=      5-min Rain = 0
KPD1 011408Z 22002KT 24/15 A3018 RMK A01 T02370154  RH  060%=      5-min Rain = 0
KPD1 011409Z 23002KT 24/15 A3018 RMK A01 T02370150  RH  058%=      5-min Rain = 0
KPD1 011410Z 25003KT 24/15 A3018 RMK A01 T02370149  RH  058%=      5-min Rain = 0
KPD1 011411Z 25003KT 24/15 A3018 RMK A01 T02380148  RH  057%=      5-min Rain = 0
KPD1 011412Z 24003KT 24/15 A3018 RMK A01 T02390147  RH  057%=      5-min Rain = 0
KPD1 011413Z 23003KT 24/15 A3018 RMK A01 T02390151  RH  058%=      5-min Rain = 0
KPD1 011414Z 23004KT 24/15 A3018 RMK A01 T02400151  RH  057%=      5-min Rain = 0
KPD1 011415Z 24003KT 24/15 A3018 RMK A01 T02400146  RH  056%=      5-min Rain = 0
KPD1 011416Z 26003KT 24/15 A3018 RMK A01 T02410153  RH  058%=      5-min Rain = 0
KPD1 011417Z 23003KT 24/15 A3018 RMK A01 T02420152  RH  057%=      5-min Rain = 0
KPD1 011418Z 24003KT 24/15 A3018 RMK A01 T02430149  RH  056%=      5-min Rain = 0
KPD1 011419Z 23005KT 24/15 A3018 RMK A01 T02440152  RH  056%=      5-min Rain = 0
KPD1 011420Z 23004KT 25/15 A3018 RMK A01 T02450148  RH  055%=      5-min Rain = 0
KPD1 011421Z 26004KT 25/15 A3018 RMK A01 T02450145  RH  054%=      5-min Rain = 0
KPD1 011422Z 25002KT 25/15 A3018 RMK A01 T02450151  RH  056%=      5-min Rain = 0
KPD1 011423Z 25003KT 25/15 A3018 RMK A01 T02470152  RH  056%=      5-min Rain = 0
KPD1 011424Z 25005KT 25/15 A3018 RMK A01 T02480148  RH  054%=      5-min Rain = 0
KPD1 011425Z 25003KT 25/14 A3018 RMK A01 T02490144  RH  052%=      5-min Rain = 0
KPD1 011426Z 23003KT 25/15 A3018 RMK A01 T02480148  RH  054%=      5-min Rain = 0
KPD1 011427Z 23004KT 25/15 A3018 RMK A01 T02490147  RH  053%=      5-min Rain = 0
KPD1 011428Z 23004KT 25/15 A3018 RMK A01 T02500148  RH  053%=      5-min Rain = 0
KPD1 011429Z 25004KT 25/15 A3018 RMK A01 T02510145  RH  052%=      5-min Rain = 0
KPD1 011430Z 26003KT 25/15 A3018 RMK A01 T02520150  RH  053%=      5-min Rain = 0
KPD1 011431Z 22003KT 25/15 A3018 RMK A01 T02530149  RH  052%=      5-min Rain = 0
KPD1 011432Z 26004KT 25/16 A3018 RMK A01 T02540155  RH  054%=      5-min Rain = 0
KPD1 011433Z 23004KT 26/15 A3018 RMK A01 T02560148  RH  051%=      5-min Rain = 0
KPD1 011434Z 23005KT 26/14 A3018 RMK A01 T02570143  RH  049%=      5-min Rain = 0
KPD1 011435Z 22004KT 26/15 A3018 RMK A01 T02560145  RH  050%=      5-min Rain = 0
KPD1 011436Z 24004KT 26/14 A3018 RMK A01 T02550144  RH  050%=      5-min Rain = 0
KPD1 011437Z 24004KT 26/14 A3018 RMK A01 T02550144  RH  050%=      5-min Rain = 0
KPD1 011438Z 22002KT 26/14 A3018 RMK A01 T02550144  RH  050%=      5-min Rain = 0
KPD1 011439Z 24003KT 26/15 A3018 RMK A01 T02560147  RH  051%=      5-min Rain = 0
KPD1 011440Z 24005KT 26/15 A3018 RMK A01 T02570145  RH  050%=      5-min Rain = 0
KPD1 011441Z 26003KT 26/14 A3018 RMK A01 T02570143  RH  049%=      5-min Rain = 0
KPD1 011442Z 25006KT 26/14 A3018 RMK A01 T02590143  RH  049%=      5-min Rain = 0
KPD1 011443Z 24006KT 26/14 A3018 RMK A01 T02610138  RH  047%=      5-min Rain = 0
KPD1 011444Z 24006KT 26/13 A3018 RMK A01 T02610132  RH  045%=      5-min Rain = 0
KPD1 011445Z 25003KT 26/14 A3018 RMK A01 T02610136  RH  046%=      5-min Rain = 0
KPD1 011446Z 24004KT 26/14 A3018 RMK A01 T02620136  RH  046%=      5-min Rain = 0
KPD1 011447Z 23004KT 26/14 A3018 RMK A01 T02620136  RH  046%=      5-min Rain = 0
KPD1 011448Z 24005KT 26/14 A3018 RMK A01 T02630137  RH  046%=      5-min Rain = 0
KPD1 011449Z 25006KT 26/14 A3018 RMK A01 T02630135  RH  045%=      5-min Rain = 0
KPD1 011450Z 25006KT 26/13 A3018 RMK A01 T02630131  RH  044%=      5-min Rain = 0
KPD1 011451Z 25006KT 26/13 A3018 RMK A01 T02630134  RH  045%=      5-min Rain = 0
KPD1 011452Z 24005KT 26/13 A3018 RMK A01 T02630133  RH  045%=      5-min Rain = 0
KPD1 011453Z 24008KT 26/13 A3018 RMK A01 T02640134  RH  045%=      5-min Rain = 0
KPD1 011454Z 25007KT 26/13 A3018 RMK A01 T02640131  RH  044%=      5-min Rain = 0
KPD1 011455Z 23006KT 26/13 A3018 RMK A01 T02640129  RH  043%=      5-min Rain = 0
KPD1 011456Z 25005KT 27/13 A3018 RMK A01 T02650131  RH  044%=      5-min Rain = 0
KPD1 011457Z 25005KT 27/14 A3018 RMK A01 T02660135  RH  045%=      5-min Rain = 0
KPD1 011458Z 24007KT 27/14 A3018 RMK A01 T02680136  RH  044%=      5-min Rain = 0
KPD1 011459Z 23006KT 27/13 A3018 RMK A01 T02680132  RH  043%=      5-min Rain = 0
KPD1 011500Z 23004G9KT 27/14 A3018 RMK A01 T02680139  RH  045%=      5-min Rain = 0
KPD1 011501Z 23006KT 27/14 A3018 RMK A01 T02680136  RH  044%=      5-min Rain = 0
KPD1 011502Z 24006KT 27/13 A3018 RMK A01 T02690132  RH  043%=      5-min Rain = 0
KPD1 011503Z 24005KT 27/13 A3018 RMK A01 T02690130  RH  042%=      5-min Rain = 0
KPD1 011504Z 26006KT 27/13 A3018 RMK A01 T02700133  RH  043%=      5-min Rain = 0
KPD1 011505Z 23004KT 27/13 A3018 RMK A01 T02710132  RH  042%=      5-min Rain = 0
KPD1 011506Z 25005KT 27/13 A3018 RMK A01 T02730131  RH  041%=      5-min Rain = 0
KPD1 011507Z 26005KT 27/13 A3018 RMK A01 T02730126  RH  040%=      5-min Rain = 0
KPD1 011508Z 25005KT 27/13 A3018 RMK A01 T02730131  RH  041%=      5-min Rain = 0
KPD1 011509Z 26006KT 27/13 A3018 RMK A01 T02730127  RH  041%=      5-min Rain = 0
KPD1 011510Z 24006KT 27/13 A3018 RMK A01 T02730130  RH  041%=      5-min Rain = 0
KPD1 011511Z 24005KT 27/13 A3018 RMK A01 T02730128  RH  041%=      5-min Rain = 0
KPD1 011512Z 24005KT 27/13 A3018 RMK A01 T02730129  RH  041%=      5-min Rain = 0
KPD1 011513Z 26006KT 27/13 A3018 RMK A01 T02730129  RH  041%=      5-min Rain = 0
KPD1 011514Z 27005KT 27/13 A3018 RMK A01 T02740132  RH  042%=      5-min Rain = 0
KPD1 011515Z 26004KT 28/13 A3018 RMK A01 T02760127  RH  040%=      5-min Rain = 0
KPD1 011516Z 25004KT 28/13 A3018 RMK A01 T02760129  RH  040%=      5-min Rain = 0
KPD1 011517Z 25005KT 28/13 A3018 RMK A01 T02780127  RH  039%=      5-min Rain = 0
KPD1 011518Z 23004KT 28/13 A3018 RMK A01 T02780131  RH  040%=      5-min Rain = 0
KPD1 011519Z 25006KT 28/13 A3018 RMK A01 T02800127  RH  039%=      5-min Rain = 0
KPD1 011520Z 26006KT 28/12 A3018 RMK A01 T02800124  RH  038%=      5-min Rain = 0
KPD1 011521Z 24009KT 28/12 A3018 RMK A01 T02790121  RH  038%=      5-min Rain = 0
KPD1 011522Z 24008KT 28/12 A3018 RMK A01 T02780122  RH  038%=      5-min Rain = 0
KPD1 011523Z 26005KT 28/13 A3018 RMK A01 T02770125  RH  039%=      5-min Rain = 0
KPD1 011524Z 24006KT 28/13 A3018 RMK A01 T02770128  RH  040%=      5-min Rain = 0
KPD1 011525Z 27008KT 28/13 A3018 RMK A01 T02790125  RH  038%=      5-min Rain = 0
KPD1 011526Z 29005KT 28/12 A3018 RMK A01 T02790122  RH  038%=      5-min Rain = 0
KPD1 011527Z 28006KT 28/12 A3018 RMK A01 T02790122  RH  038%=      5-min Rain = 0
KPD1 011528Z 29004KT 28/12 A3018 RMK A01 T02790122  RH  038%=      5-min Rain = 0
KPD1 011529Z 28004G9KT 28/12 A3018 RMK A01 T02790123  RH  038%=      5-min Rain = 0
KPD1 011530Z 28007KT 28/12 A3018 RMK A01 T02800124  RH  038%=      5-min Rain = 0
KPD1 011531Z 26007KT 28/13 A3018 RMK A01 T02810129  RH  039%=      5-min Rain = 0
KPD1 011532Z 25008KT 28/12 A3018 RMK A01 T02830124  RH  037%=      5-min Rain = 0
KPD1 011533Z 25008KT 28/12 A3018 RMK A01 T02820121  RH  037%=      5-min Rain = 0
KPD1 011534Z 28007KT 28/12 A3018 RMK A01 T02810120  RH  037%=      5-min Rain = 0
KPD1 011535Z 28005KT 28/12 A3018 RMK A01 T02810123  RH  038%=      5-min Rain = 0
KPD1 011536Z 29010KT 28/12 A3018 RMK A01 T02800124  RH  038%=      5-min Rain = 0
KPD1 011537Z 28007KT 28/13 A3018 RMK A01 T02810125  RH  038%=      5-min Rain = 0
KPD1 011538Z 29004KT 28/13 A3018 RMK A01 T02820127  RH  038%=      5-min Rain = 0
KPD1 011539Z 29008KT 28/12 A3018 RMK A01 T02820123  RH  037%=      5-min Rain = 0
KPD1 011540Z 28008KT 28/13 A3018 RMK A01 T02820126  RH  038%=      5-min Rain = 0
KPD1 011541Z 27008KT 28/12 A3018 RMK A01 T02820124  RH  038%=      5-min Rain = 0
KPD1 011542Z 26008KT 28/12 A3018 RMK A01 T02820124  RH  038%=      5-min Rain = 0
KPD1 011543Z 27008KT 28/12 A3018 RMK A01 T02830124  RH  037%=      5-min Rain = 0
KPD1 011544Z 27008KT 28/13 A3018 RMK A01 T02830127  RH  038%=      5-min Rain = 0
KPD1 011545Z 27008KT 28/13 A3018 RMK A01 T02830125  RH  038%=      5-min Rain = 0
KPD1 011546Z 27007KT 28/12 A3018 RMK A01 T02830124  RH  038%=      5-min Rain = 0
KPD1 011547Z 28007KT 28/13 A3018 RMK A01 T02830128  RH  039%=      5-min Rain = 0
KPD1 011548Z 30007KT 28/12 A3018 RMK A01 T02830124  RH  037%=      5-min Rain = 0
KPD1 011549Z 27006KT 28/12 A3018 RMK A01 T02830124  RH  037%=      5-min Rain = 0
KPD1 011550Z 27006KT 28/12 A3018 RMK A01 T02830123  RH  037%=      5-min Rain = 0
KPD1 011551Z 28003G8KT 28/13 A3018 RMK A01 T02820128  RH  039%=      5-min Rain = 0
KPD1 011552Z 28007KT 29/13 A3018 RMK A01 T02850132  RH  039%=      5-min Rain = 0
KPD1 011553Z 29006KT 29/13 A3018 RMK A01 T02880130  RH  038%=      5-min Rain = 0
KPD1 011554Z 30005KT 29/13 A3018 RMK A01 T02870125  RH  037%=      5-min Rain = 0
KPD1 011555Z 31005KT 29/13 A3018 RMK A01 T02850127  RH  037%=      5-min Rain = 0
KPD1 011556Z 30003KT 29/13 A3018 RMK A01 T02850127  RH  038%=      5-min Rain = 0
KPD1 011557Z 27004KT 29/13 A3018 RMK A01 T02860129  RH  038%=      5-min Rain = 0
KPD1 011558Z 31004KT 29/13 A3018 RMK A01 T02880128  RH  037%=      5-min Rain = 0
KPD1 011559Z 29005KT 29/13 A3018 RMK A01 T02900132  RH  038%=      5-min Rain = 0
KPD1 011600Z 29005KT 29/13 A3018 RMK A01 T02910129  RH  037%=      5-min Rain = 0
KPD1 011601Z 30008KT 29/13 A3018 RMK A01 T02910129  RH  037%=      5-min Rain = 0
KPD1 011602Z 31006KT 29/13 A3018 RMK A01 T02910133  RH  038%=      5-min Rain = 0
KPD1 011603Z 31007KT 29/13 A3018 RMK A01 T02930131  RH  037%=      5-min Rain = 0
KPD1 011604Z 30006KT 29/13 A3018 RMK A01 T02930129  RH  036%=      5-min Rain = 0
KPD1 011605Z 30006KT 29/12 A3018 RMK A01 T02920124  RH  035%=      5-min Rain = 0
KPD1 011606Z 29007KT 29/13 A3018 RMK A01 T02900127  RH  037%=      5-min Rain = 0
KPD1 011607Z 28008KT 29/13 A3018 RMK A01 T02910128  RH  037%=      5-min Rain = 0
KPD1 011608Z 30004KT 29/12 A3018 RMK A01 T02910124  RH  036%=      5-min Rain = 0
KPD1 011609Z 29003KT 29/12 A3018 RMK A01 T02900120  RH  035%=      5-min Rain = 0
KPD1 011610Z 31005KT 29/12 A3018 RMK A01 T02870123  RH  036%=      5-min Rain = 0
KPD1 011611Z 30005KT 29/13 A3018 RMK A01 T02880127  RH  037%=      5-min Rain = 0
KPD1 011612Z 28009KT 29/12 A3018 RMK A01 T02890122  RH  036%=      5-min Rain = 0
KPD1 011613Z 29007KT 29/12 A3018 RMK A01 T02890121  RH  035%=      5-min Rain = 0
KPD1 011614Z 31007KT 29/13 A3018 RMK A01 T02890125  RH  036%=      5-min Rain = 0
KPD1 011615Z 31006KT 29/13 A3018 RMK A01 T02910132  RH  037%=      5-min Rain = 0
KPD1 011616Z 30008KT 30/13 A3018 RMK A01 T02950132  RH  037%=      5-min Rain = 0
KPD1 011617Z 30006KT 30/13 A3018 RMK A01 T02970129  RH  036%=      5-min Rain = 0
KPD1 011618Z 29006KT 30/12 A3018 RMK A01 T02970122  RH  034%=      5-min Rain = 0
KPD1 011619Z 31004KT 30/13 A3018 RMK A01 T02960128  RH  036%=      5-min Rain = 0
KPD1 011620Z 32006KT 30/13 A3018 RMK A01 T02970128  RH  035%=      5-min Rain = 0
KPD1 011621Z 33008KT 30/13 A3018 RMK A01 T02980128  RH  035%=      5-min Rain = 0
KPD1 011622Z 34005KT 30/13 A3018 RMK A01 T02970125  RH  035%=      5-min Rain = 0
KPD1 011623Z 32006KT 30/13 A3018 RMK A01 T02960126  RH  035%=      5-min Rain = 0
KPD1 011624Z 32004KT 30/12 A3018 RMK A01 T02960124  RH  035%=      5-min Rain = 0
KPD1 011625Z 29008G14KT 30/13 A3018 RMK A01 T02950126  RH  035%=      5-min Rain = 0
KPD1 011626Z 31009KT 30/12 A3018 RMK A01 T02950124  RH  035%=      5-min Rain = 0
KPD1 011627Z 33007KT 30/13 A3018 RMK A01 T02950125  RH  035%=      5-min Rain = 0
KPD1 011628Z 29004KT 30/13 A3018 RMK A01 T02950127  RH  036%=      5-min Rain = 0
KPD1 011629Z 27007KT 30/13 A3018 RMK A01 T02970127  RH  035%=      5-min Rain = 0
KPD1 011630Z 26007KT 30/13 A3018 RMK A01 T02990125  RH  034%=      5-min Rain = 0
KPD1 011631Z 27005KT 30/12 A3018 RMK A01 T02980122  RH  034%=      5-min Rain = 0
KPD1 011632Z 28002KT 30/13 A3018 RMK A01 T02970125  RH  035%=      5-min Rain = 0
KPD1 011633Z 32004KT 30/12 A3018 RMK A01 T02980123  RH  034%=      5-min Rain = 0
KPD1 011634Z 30003KT 30/12 A3018 RMK A01 T02980122  RH  034%=      5-min Rain = 0
KPD1 011635Z 31006G11KT 30/13 A3018 RMK A01 T02980125  RH  035%=      5-min Rain = 0
KPD1 011636Z 33006KT 30/13 A3018 RMK A01 T02990126  RH  034%=      5-min Rain = 0
KPD1 011637Z 33003KT 30/13 A3018 RMK A01 T02990126  RH  034%=      5-min Rain = 0
KPD1 011638Z 30006KT 30/13 A3018 RMK A01 T03000126  RH  034%=      5-min Rain = 0
KPD1 011639Z 33007KT 30/12 A3018 RMK A01 T03000124  RH  034%=      5-min Rain = 0
KPD1 011640Z 32007KT 30/13 A3018 RMK A01 T02990127  RH  035%=      5-min Rain = 0
KPD1 011641Z 31006KT 30/13 A3018 RMK A01 T03000130  RH  035%=      5-min Rain = 0
KPD1 011642Z 31006KT 30/13 A3018 RMK A01 T03020127  RH  034%=      5-min Rain = 0
KPD1 011643Z 31006KT 30/13 A3018 RMK A01 T03010125  RH  034%=      5-min Rain = 0
KPD1 011644Z 31005KT 30/13 A3018 RMK A01 T03000127  RH  034%=      5-min Rain = 0
KPD1 011645Z 32005KT 30/13 A3018 RMK A01 T03000125  RH  034%=      5-min Rain = 0
KPD1 011646Z 36001KT 30/13 A3018 RMK A01 T03000125  RH  034%=      5-min Rain = 0
KPD1 011647Z 05001KT 30/12 A3018 RMK A01 T03010123  RH  034%=      5-min Rain = 0
KPD1 011648Z 03001KT 30/12 A3018 RMK A01 T03020121  RH  033%=      5-min Rain = 0
KPD1 011649Z 34002G7KT 30/12 A3018 RMK A01 T03010120  RH  033%=      5-min Rain = 0
KPD1 011650Z 28005KT 30/12 A3018 RMK A01 T03000123  RH  033%=      5-min Rain = 0
KPD1 011651Z 32008KT 30/12 A3018 RMK A01 T03000124  RH  034%=      5-min Rain = 0
KPD1 011652Z 35005KT 30/13 A3018 RMK A01 T03010126  RH  034%=      5-min Rain = 0
KPD1 011653Z 01007KT 30/13 A3017 RMK A01 T03020126  RH  034%=      5-min Rain = 0
KPD1 011654Z 35007KT 30/13 A3018 RMK A01 T03020126  RH  034%=      5-min Rain = 0
KPD1 011655Z 32007KT 30/13 A3017 RMK A01 T03020127  RH  034%=      5-min Rain = 0
KPD1 011656Z 30007KT 30/13 A3017 RMK A01 T03030126  RH  034%=      5-min Rain = 0
KPD1 011657Z 32005KT 30/13 A3017 RMK A01 T03030129  RH  035%=      5-min Rain = 0
KPD1 011658Z 35005KT 31/13 A3018 RMK A01 T03050126  RH  033%=      5-min Rain = 0
KPD1 011659Z 33005KT 30/12 A3017 RMK A01 T03040124  RH  033%=      5-min Rain = 0
KPD1 011700Z 32006KT 30/13 A3017 RMK A01 T03040125  RH  033%=      5-min Rain = 0
KPD1 011701Z 32007KT 30/12 A3017 RMK A01 T03030124  RH  033%=      5-min Rain = 0
KPD1 011702Z 31005KT 30/13 A3017 RMK A01 T03040126  RH  034%=      5-min Rain = 0
KPD1 011703Z 32004KT 30/13 A3017 RMK A01 T03040127  RH  034%=      5-min Rain = 0
KPD1 011704Z 32003KT 31/13 A3017 RMK A01 T03060126  RH  033%=      5-min Rain = 0
KPD1 011705Z 00003KT 31/12 A3017 RMK A01 T03060123  RH  032%=      5-min Rain = 0
KPD1 011706Z 34002KT 31/13 A3017 RMK A01 T03060128  RH  034%=      5-min Rain = 0
KPD1 011707Z 23001KT 31/13 A3017 RMK A01 T03080128  RH  033%=      5-min Rain = 0
KPD1 011708Z 31003KT 31/13 A3017 RMK A01 T03100126  RH  032%=      5-min Rain = 0
KPD1 011709Z 31005KT 31/12 A3017 RMK A01 T03100123  RH  032%=      5-min Rain = 0
KPD1 011710Z 31007KT 31/12 A3017 RMK A01 T03070123  RH  032%=      5-min Rain = 0
KPD1 011711Z 31005KT 31/12 A3017 RMK A01 T03060123  RH  033%=      5-min Rain = 0
KPD1 011712Z 31008KT 31/12 A3017 RMK A01 T03050124  RH  033%=      5-min Rain = 0
KPD1 011713Z 32008KT 31/13 A3017 RMK A01 T03050126  RH  033%=      5-min Rain = 0
KPD1 011714Z 32006KT 31/13 A3017 RMK A01 T03050128  RH  034%=      5-min Rain = 0
KPD1 011715Z 03003KT 31/13 A3017 RMK A01 T03080129  RH  034%=      5-min Rain = 0
KPD1 011716Z 03002KT 31/13 A3017 RMK A01 T03090130  RH  033%=      5-min Rain = 0
KPD1 011717Z 32003KT 31/13 A3017 RMK A01 T03120126  RH  032%=      5-min Rain = 0
KPD1 011718Z 09000KT 31/12 A3017 RMK A01 T03100120  RH  031%=      5-min Rain = 0
KPD1 011719Z 28003KT 31/12 A3017 RMK A01 T03090124  RH  032%=      5-min Rain = 0
KPD1 011720Z 29003KT 31/13 A3017 RMK A01 T03080125  RH  033%=      5-min Rain = 0
KPD1 011721Z 33005KT 31/13 A3017 RMK A01 T03090125  RH  033%=      5-min Rain = 0
KPD1 011722Z 32003KT 31/12 A3017 RMK A01 T03080123  RH  032%=      5-min Rain = 0
KPD1 011723Z 35002KT 31/12 A3017 RMK A01 T03070124  RH  033%=      5-min Rain = 0
KPD1 011724Z 34005KT 31/13 A3017 RMK A01 T03070131  RH  034%=      5-min Rain = 0
KPD1 011725Z 32007KT 31/13 A3017 RMK A01 T03100132  RH  034%=      5-min Rain = 0
KPD1 011726Z 32005KT 31/13 A3017 RMK A01 T03130132  RH  033%=      5-min Rain = 0
KPD1 011727Z 34003KT 31/13 A3017 RMK A01 T03130129  RH  032%=      5-min Rain = 0
KPD1 011728Z 34002KT 31/13 A3017 RMK A01 T03130125  RH  032%=      5-min Rain = 0
KPD1 011729Z 02005KT 31/13 A3017 RMK A01 T03120130  RH  033%=      5-min Rain = 0
KPD1 011730Z 01006KT 31/13 A3017 RMK A01 T03110127  RH  033%=      5-min Rain = 0
KPD1 011731Z 34005KT 31/13 A3017 RMK A01 T03100127  RH  033%=      5-min Rain = 0
KPD1 011732Z 34004KT 31/12 A3016 RMK A01 T03080124  RH  032%=      5-min Rain = 0
KPD1 011733Z 00005KT 31/13 A3017 RMK A01 T03070130  RH  034%=      5-min Rain = 0
KPD1 011734Z 34004KT 31/13 A3016 RMK A01 T03100130  RH  033%=      5-min Rain = 0
KPD1 011735Z 34006KT 31/13 A3016 RMK A01 T03140133  RH  033%=      5-min Rain = 0
KPD1 011736Z 33005KT 32/13 A3016 RMK A01 T03150129  RH  032%=      5-min Rain = 0
KPD1 011737Z 35007KT 32/13 A3016 RMK A01 T03150129  RH  032%=      5-min Rain = 0
KPD1 011738Z 02008KT 32/13 A3016 RMK A01 T03150128  RH  032%=      5-min Rain = 0
KPD1 011739Z 03009KT 32/13 A3016 RMK A01 T03150128  RH  032%=      5-min Rain = 0
KPD1 011740Z 03006KT 31/13 A3016 RMK A01 T03130127  RH  032%=      5-min Rain = 0
KPD1 011741Z 02007KT 31/13 A3016 RMK A01 T03140129  RH  032%=      5-min Rain = 0
KPD1 011742Z 03006KT 31/13 A3016 RMK A01 T03140127  RH  032%=      5-min Rain = 0
KPD1 011743Z 05005KT 31/13 A3016 RMK A01 T03140125  RH  032%=      5-min Rain = 0
KPD1 011744Z 02008KT 31/13 A3016 RMK A01 T03130129  RH  033%=      5-min Rain = 0
KPD1 011745Z 03005KT 31/13 A3016 RMK A01 T03140130  RH  033%=      5-min Rain = 0
KPD1 011746Z 05003KT 31/13 A3016 RMK A01 T03140129  RH  032%=      5-min Rain = 0
KPD1 011747Z 03003KT 31/13 A3016 RMK A01 T03140133  RH  033%=      5-min Rain = 0
KPD1 011748Z 07002KT 32/14 A3016 RMK A01 T03170137  RH  033%=      5-min Rain = 0
KPD1 011749Z 08002KT 32/13 A3016 RMK A01 T03200133  RH  032%=      5-min Rain = 0
KPD1 011750Z 07003KT 32/13 A3016 RMK A01 T03210128  RH  031%=      5-min Rain = 0
KPD1 011751Z 00007KT 32/13 A3016 RMK A01 T03210129  RH  031%=      5-min Rain = 0
KPD1 011752Z 36007KT 32/13 A3016 RMK A01 T03200130  RH  032%=      5-min Rain = 0
KPD1 011753Z 02007KT 32/13 A3016 RMK A01 T03190130  RH  032%=      5-min Rain = 0
KPD1 011754Z 01007KT 32/13 A3016 RMK A01 T03170130  RH  032%=      5-min Rain = 0
KPD1 011755Z 00006KT 32/13 A3016 RMK A01 T03160129  RH  032%=      5-min Rain = 0
KPD1 011756Z 01005KT 32/13 A3016 RMK A01 T03150127  RH  032%=      5-min Rain = 0
KPD1 011757Z 33004KT 31/13 A3016 RMK A01 T03140127  RH  032%=      5-min Rain = 0
KPD1 011758Z 33002KT 31/12 A3016 RMK A01 T03130123  RH  031%=      5-min Rain = 0
KPD1 011759Z 31001KT 31/12 A3016 RMK A01 T03110122  RH  032%=      5-min Rain = 0
KPD1 011800Z 08000KT 31/12 A3016 RMK A01 T03090123  RH  032%=      5-min Rain = 0
KPD1 011801Z 07002KT 31/12 A3016 RMK A01 T03090123  RH  032%=      5-min Rain = 0
KPD1 011802Z 01002KT 31/13 A3016 RMK A01 T03090125  RH  032%=      5-min Rain = 0
KPD1 011803Z 34001KT 31/13 A3016 RMK A01 T03080125  RH  033%=      5-min Rain = 0
KPD1 011804Z 33005KT 31/13 A3016 RMK A01 T03090128  RH  033%=      5-min Rain = 0
KPD1 011805Z 34005KT 31/14 A3016 RMK A01 T03130135  RH  034%=      5-min Rain = 0
KPD1 011806Z 33006KT 32/14 A3016 RMK A01 T03190138  RH  033%=      5-min Rain = 0
KPD1 011807Z 36006KT 32/13 A3016 RMK A01 T03210130  RH  031%=      5-min Rain = 0
KPD1 011808Z 35004KT 32/14 A3016 RMK A01 T03220136  RH  032%=      5-min Rain = 0
KPD1 011809Z 30004KT 32/13 A3016 RMK A01 T03240133  RH  031%=      5-min Rain = 0
KPD1 011810Z 31006KT 32/14 A3016 RMK A01 T03240135  RH  032%=      5-min Rain = 0
KPD1 011811Z 33008KT 33/13 A3016 RMK A01 T03250133  RH  031%=      5-min Rain = 0
KPD1 011812Z 34010KT 32/13 A3016 RMK A01 T03230126  RH  030%=      5-min Rain = 0
KPD1 011813Z 34007KT 32/13 A3016 RMK A01 T03180128  RH  031%=      5-min Rain = 0
KPD1 011814Z 32006KT 32/13 A3016 RMK A01 T03170131  RH  032%=      5-min Rain = 0
KPD1 011815Z 31006KT 32/13 A3016 RMK A01 T03210131  RH  032%=      5-min Rain = 0
KPD1 011816Z 33007KT 32/13 A3016 RMK A01 T03220132  RH  032%=      5-min Rain = 0
KPD1 011817Z 35010KT 32/13 A3016 RMK A01 T03240132  RH  031%=      5-min Rain = 0
KPD1 011818Z 34007KT 33/13 A3016 RMK A01 T03250129  RH  030%=      5-min Rain = 0
KPD1 011819Z 31002KT 32/12 A3016 RMK A01 T03230122  RH  029%=      5-min Rain = 0
KPD1 011820Z 33004KT 32/12 A3016 RMK A01 T03190122  RH  030%=      5-min Rain = 0
KPD1 011821Z 35010KT 32/13 A3016 RMK A01 T03180127  RH  031%=      5-min Rain = 0
KPD1 011822Z 00007G12KT 32/13 A3016 RMK A01 T03190129  RH  031%=      5-min Rain = 0
KPD1 011823Z 33003KT 32/13 A3016 RMK A01 T03190130  RH  032%=      5-min Rain = 0
KPD1 011824Z 31004KT 32/13 A3016 RMK A01 T03180128  RH  031%=      5-min Rain = 0
KPD1 011825Z 31005KT 32/13 A3016 RMK A01 T03170128  RH  032%=      5-min Rain = 0
KPD1 011826Z 31005KT 32/13 A3016 RMK A01 T03160128  RH  032%=      5-min Rain = 0
KPD1 011827Z 32003KT 32/13 A3016 RMK A01 T03160128  RH  032%=      5-min Rain = 0
KPD1 011828Z 03005G11KT 32/14 A3016 RMK A01 T03170135  RH  033%=      5-min Rain = 0
KPD1 011829Z 04004KT 32/13 A3016 RMK A01 T03200128  RH  031%=      5-min Rain = 0
KPD1 011830Z 01001KT 32/13 A3015 RMK A01 T03200131  RH  032%=      5-min Rain = 0
KPD1 011831Z 34003KT 32/13 A3015 RMK A01 T03200128  RH  031%=      5-min Rain = 0
KPD1 011832Z 03004KT 32/13 A3015 RMK A01 T03200129  RH  031%=      5-min Rain = 0
KPD1 011833Z 03004KT 32/13 A3015 RMK A01 T03200134  RH  032%=      5-min Rain = 0
KPD1 011834Z 34003KT 32/13 A3015 RMK A01 T03230133  RH  032%=      5-min Rain = 0
KPD1 011835Z 33003KT 33/14 A3015 RMK A01 T03250136  RH  032%=      5-min Rain = 0
KPD1 011836Z 32004KT 33/14 A3015 RMK A01 T03270135  RH  031%=      5-min Rain = 0
KPD1 011837Z 33005KT 33/14 A3015 RMK A01 T03290137  RH  031%=      5-min Rain = 0
KPD1 011838Z 34003KT 33/13 A3015 RMK A01 T03270134  RH  031%=      5-min Rain = 0
KPD1 011839Z 01006KT 32/13 A3015 RMK A01 T03240133  RH  031%=      5-min Rain = 0
KPD1 011840Z 35003KT 32/13 A3015 RMK A01 T03180129  RH  032%=      5-min Rain = 0
KPD1 011841Z 34003KT 31/13 A3015 RMK A01 T03140134  RH  033%=      5-min Rain = 0
KPD1 011842Z 35005KT 31/13 A3015 RMK A01 T03120131  RH  033%=      5-min Rain = 0
KPD1 011843Z 35005KT 31/13 A3015 RMK A01 T03100130  RH  033%=      5-min Rain = 0
KPD1 011844Z 03008KT 31/13 A3015 RMK A01 T03090132  RH  034%=      5-min Rain = 0
KPD1 011845Z 05008KT 31/13 A3015 RMK A01 T03090134  RH  034%=      5-min Rain = 0
KPD1 011846Z 04007KT 31/13 A3015 RMK A01 T03120131  RH  033%=      5-min Rain = 0
KPD1 011847Z 00008KT 31/13 A3015 RMK A01 T03130131  RH  033%=      5-min Rain = 0
KPD1 011848Z 02006KT 31/13 A3015 RMK A01 T03120130  RH  033%=      5-min Rain = 0
KPD1 011849Z 03006KT 31/13 A3015 RMK A01 T03100129  RH  033%=      5-min Rain = 0
KPD1 011850Z 04006KT 31/13 A3015 RMK A01 T03080128  RH  033%=      5-min Rain = 0
KPD1 011851Z 07003KT 31/13 A3015 RMK A01 T03060126  RH  033%=      5-min Rain = 0
KPD1 011852Z 05002KT 31/12 A3015 RMK A01 T03070124  RH  033%=      5-min Rain = 0
KPD1 011853Z 03000KT 31/12 A3015 RMK A01 T03080121  RH  032%=      5-min Rain = 0
KPD1 011854Z 09002KT 31/12 A3015 RMK A01 T03090121  RH  032%=      5-min Rain = 0
KPD1 011855Z 03006KT 31/13 A3015 RMK A01 T03090126  RH  033%=      5-min Rain = 0
KPD1 011856Z 32004KT 31/13 A3015 RMK A01 T03110127  RH  032%=      5-min Rain = 0
KPD1 011857Z 33006KT 31/13 A3015 RMK A01 T03130132  RH  033%=      5-min Rain = 0
KPD1 011858Z 32007KT 32/13 A3015 RMK A01 T03170132  RH  032%=      5-min Rain = 0
KPD1 011859Z 31007KT 32/13 A3015 RMK A01 T03210130  RH  031%=      5-min Rain = 0
KPD1 011900Z 33005KT 32/13 A3015 RMK A01 T03190129  RH  031%=      5-min Rain = 0
KPD1 011901Z 36007KT 32/13 A3015 RMK A01 T03200132  RH  032%=      5-min Rain = 0
KPD1 011902Z 35008KT 32/13 A3015 RMK A01 T03240129  RH  031%=      5-min Rain = 0
KPD1 011903Z 35011KT 32/12 A3015 RMK A01 T03240121  RH  029%=      5-min Rain = 0
KPD1 011904Z 01008KT 32/12 A3015 RMK A01 T03180115  RH  029%=      5-min Rain = 0
KPD1 011905Z 34007KT 31/12 A3015 RMK A01 T03140119  RH  030%=      5-min Rain = 0
KPD1 011906Z 36009KT 31/12 A3015 RMK A01 T03130119  RH  030%=      5-min Rain = 0
KPD1 011907Z 33007KT 31/12 A3015 RMK A01 T03120119  RH  031%=      5-min Rain = 0
KPD1 011908Z 36008KT 31/12 A3015 RMK A01 T03140123  RH  031%=      5-min Rain = 0
KPD1 011909Z 36006KT 32/12 A3015 RMK A01 T03180121  RH  030%=      5-min Rain = 0
KPD1 011910Z 00003KT 32/11 A3015 RMK A01 T03200114  RH  028%=      5-min Rain = 0
KPD1 011911Z 33003KT 32/11 A3015 RMK A01 T03200110  RH  028%=      5-min Rain = 0
KPD1 011912Z 33008KT 32/12 A3015 RMK A01 T03210118  RH  029%=      5-min Rain = 0
KPD1 011913Z 33007KT 32/12 A3015 RMK A01 T03220117  RH  029%=      5-min Rain = 0
KPD1 011914Z 36005KT 32/12 A3015 RMK A01 T03210120  RH  029%=      5-min Rain = 0
KPD1 011915Z 01008G13KT 32/12 A3015 RMK A01 T03200123  RH  030%=      5-min Rain = 0
KPD1 011916Z 36013KT 32/12 A3015 RMK A01 T03190124  RH  030%=      5-min Rain = 0
KPD1 011917Z 36009KT 32/12 A3015 RMK A01 T03180124  RH  031%=      5-min Rain = 0
KPD1 011918Z 35006KT 32/12 A3015 RMK A01 T03160124  RH  031%=      5-min Rain = 0
KPD1 011919Z 35009KT 32/12 A3015 RMK A01 T03150123  RH  031%=      5-min Rain = 0
KPD1 011920Z 35009KT 31/12 A3015 RMK A01 T03120123  RH  032%=      5-min Rain = 0
KPD1 011921Z 01006KT 31/12 A3015 RMK A01 T03090122  RH  032%=      5-min Rain = 0
KPD1 011922Z 02006KT 31/12 A3015 RMK A01 T03090120  RH  031%=      5-min Rain = 0
KPD1 011923Z 04004KT 31/12 A3015 RMK A01 T03070118  RH  031%=      5-min Rain = 0
KPD1 011924Z 05003KT 31/12 A3015 RMK A01 T03070124  RH  033%=      5-min Rain = 0
KPD1 011925Z 05003KT 31/13 A3015 RMK A01 T03090129  RH  033%=      5-min Rain = 0
KPD1 011926Z 36006KT 31/13 A3015 RMK A01 T03140128  RH  032%=      5-min Rain = 0
KPD1 011927Z 01002G9KT 32/12 A3014 RMK A01 T03190116  RH  029%=      5-min Rain = 0
KPD1 011928Z 00002KT 32/11 A3014 RMK A01 T03210111  RH  028%=      5-min Rain = 0
KPD1 011929Z 01009G14KT 32/12 A3014 RMK A01 T03210116  RH  029%=      5-min Rain = 0
KPD1 011930Z 01012KT 32/10 A3014 RMK A01 T03190104  RH  027%=      5-min Rain = 0
KPD1 011931Z 01010KT 32/10 A3014 RMK A01 T03160099  RH  026%=      5-min Rain = 0
KPD1 011932Z 01010KT 31/10 A3014 RMK A01 T03120098  RH  027%=      5-min Rain = 0
KPD1 011933Z 35009KT 31/10 A3014 RMK A01 T03110099  RH  027%=      5-min Rain = 0
KPD1 011934Z 00012G17KT 31/10 A3014 RMK A01 T03100097  RH  027%=      5-min Rain = 0
KPD1 011935Z 35008G13KT 31/09 A3014 RMK A01 T03100092  RH  026%=      5-min Rain = 0
KPD1 011936Z 35011KT 31/09 A3014 RMK A01 T03100093  RH  026%=      5-min Rain = 0
KPD1 011937Z 35007KT 31/10 A3014 RMK A01 T03090095  RH  026%=      5-min Rain = 0
KPD1 011938Z 35006KT 31/10 A3014 RMK A01 T03100101  RH  027%=      5-min Rain = 0
KPD1 011939Z 01008KT 32/11 A3014 RMK A01 T03160106  RH  027%=      5-min Rain = 0
KPD1 011940Z 36008KT 32/11 A3014 RMK A01 T03220109  RH  027%=      5-min Rain = 0
KPD1 011941Z 03009KT 33/11 A3014 RMK A01 T03260108  RH  026%=      5-min Rain = 0
KPD1 011942Z 06006KT 33/11 A3014 RMK A01 T03270111  RH  027%=      5-min Rain = 0
KPD1 011943Z 33004G9KT 33/11 A3014 RMK A01 T03280112  RH  027%=      5-min Rain = 0
KPD1 011944Z 32004KT 33/11 A3014 RMK A01 T03300108  RH  026%=      5-min Rain = 0
KPD1 011945Z 33008KT 33/11 A3014 RMK A01 T03280106  RH  026%=      5-min Rain = 0
KPD1 011946Z 34008G13KT 33/11 A3014 RMK A01 T03280109  RH  026%=      5-min Rain = 0
KPD1 011947Z 34011KT 33/11 A3014 RMK A01 T03320108  RH  025%=      5-min Rain = 0
KPD1 011948Z 00011G16KT 34/11 A3014 RMK A01 T03350108  RH  025%=      5-min Rain = 0
KPD1 011949Z 01008KT 34/11 A3014 RMK A01 T03370109  RH  025%=      5-min Rain = 0
KPD1 011950Z 34010KT 34/11 A3014 RMK A01 T03390107  RH  024%=      5-min Rain = 0
KPD1 011951Z 36011KT 34/10 A3014 RMK A01 T03370103  RH  024%=      5-min Rain = 0
KPD1 011952Z 36010KT 34/10 A3014 RMK A01 T03350100  RH  024%=      5-min Rain = 0
KPD1 011953Z 35011KT 33/10 A3014 RMK A01 T03310099  RH  024%=      5-min Rain = 0
KPD1 011954Z 35009KT 33/10 A3014 RMK A01 T03300102  RH  025%=      5-min Rain = 0
KPD1 011955Z 36013G18KT 33/10 A3014 RMK A01 T03300101  RH  025%=      5-min Rain = 0
KPD1 011956Z 36012KT 33/10 A3014 RMK A01 T03310104  RH  025%=      5-min Rain = 0
KPD1 011957Z 36010KT 33/11 A3014 RMK A01 T03310106  RH  025%=      5-min Rain = 0
KPD1 011958Z 02009KT 33/11 A3014 RMK A01 T03290110  RH  026%=      5-min Rain = 0
KPD1 011959Z 02009G14KT 33/11 A3014 RMK A01 T03280111  RH  027%=      5-min Rain = 0
KPD1 012000Z 35010KT 33/11 A3014 RMK A01 T03290112  RH  027%=      5-min Rain = 0
KPD1 012001Z 36009KT 33/11 A3014 RMK A01 T03310110  RH  026%=      5-min Rain = 0
KPD1 012002Z 00009KT 33/10 A3014 RMK A01 T03310101  RH  024%=      5-min Rain = 0
KPD1 012003Z 35010KT 33/10 A3014 RMK A01 T03290097  RH  024%=      5-min Rain = 0
KPD1 012004Z 01007KT 33/09 A3014 RMK A01 T03280091  RH  023%=      5-min Rain = 0
KPD1 012005Z 04008KT 33/10 A3014 RMK A01 T03260098  RH  025%=      5-min Rain = 0
KPD1 012006Z 04008KT 33/12 A3014 RMK A01 T03280115  RH  027%=      5-min Rain = 0
KPD1 012007Z 05008KT 33/12 A3014 RMK A01 T03260119  RH  028%=      5-min Rain = 0
KPD1 012008Z 06008G15KT 32/12 A3014 RMK A01 T03230118  RH  029%=      5-min Rain = 0
KPD1 012009Z 08010KT 32/12 A3013 RMK A01 T03230123  RH  030%=      5-min Rain = 0
KPD1 012010Z 01010KT 33/13 A3014 RMK A01 T03280125  RH  029%=      5-min Rain = 0
KPD1 012011Z 02011KT 33/12 A3014 RMK A01 T03310123  RH  028%=      5-min Rain = 0
KPD1 012012Z 01007KT 33/12 A3014 RMK A01 T03290121  RH  028%=      5-min Rain = 0
KPD1 012013Z 01009KT 33/12 A3014 RMK A01 T03280120  RH  028%=      5-min Rain = 0
KPD1 012014Z 35009KT 33/12 A3014 RMK A01 T03310118  RH  027%=      5-min Rain = 0
KPD1 012015Z 01008KT 33/12 A3014 RMK A01 T03310119  RH  027%=      5-min Rain = 0
KPD1 012016Z 02006G11KT 33/12 A3014 RMK A01 T03330118  RH  027%=      5-min Rain = 0
KPD1 012017Z 04006G12KT 33/12 A3014 RMK A01 T03330120  RH  027%=      5-min Rain = 0
KPD1 012018Z 02011KT 33/12 A3014 RMK A01 T03330117  RH  027%=      5-min Rain = 0
KPD1 012019Z 02011G17KT 33/12 A3014 RMK A01 T03330118  RH  027%=      5-min Rain = 0
KPD1 012020Z 02012KT 33/12 A3014 RMK A01 T03340117  RH  027%=      5-min Rain = 0
KPD1 012021Z 03007G12KT 33/11 A3014 RMK A01 T03310113  RH  026%=      5-min Rain = 0
KPD1 012022Z 04006KT 33/11 A3014 RMK A01 T03270114  RH  027%=      5-min Rain = 0
KPD1 012023Z 03010KT 33/11 A3014 RMK A01 T03290112  RH  027%=      5-min Rain = 0
KPD1 012024Z 03009KT 33/11 A3014 RMK A01 T03300109  RH  026%=      5-min Rain = 0
KPD1 012025Z 03008G14KT 33/11 A3014 RMK A01 T03290108  RH  026%=      5-min Rain = 0
KPD1 012026Z 03009KT 33/10 A3014 RMK A01 T03280095  RH  024%=      5-min Rain = 0
KPD1 012027Z 03006KT 33/09 A3014 RMK A01 T03290091  RH  023%=      5-min Rain = 0
KPD1 012028Z 04007KT 33/09 A3014 RMK A01 T03300090  RH  023%=      5-min Rain = 0
KPD1 012029Z 02009G14KT 33/09 A3014 RMK A01 T03290094  RH  024%=      5-min Rain = 0
KPD1 012030Z 01010KT 33/10 A3014 RMK A01 T03290098  RH  024%=      5-min Rain = 0
KPD1 012031Z 35008KT 33/10 A3013 RMK A01 T03290101  RH  025%=      5-min Rain = 0
KPD1 012032Z 01012KT 33/11 A3013 RMK A01 T03290107  RH  026%=      5-min Rain = 0
KPD1 012033Z 01012KT 33/11 A3014 RMK A01 T03300106  RH  025%=      5-min Rain = 0
KPD1 012034Z 02009KT 33/11 A3013 RMK A01 T03300107  RH  026%=      5-min Rain = 0
KPD1 012035Z 00010KT 33/11 A3013 RMK A01 T03300112  RH  026%=      5-min Rain = 0
KPD1 012036Z 36010KT 33/12 A3013 RMK A01 T03300116  RH  027%=      5-min Rain = 0
KPD1 012037Z 35009KT 33/11 A3013 RMK A01 T03300113  RH  027%=      5-min Rain = 0
KPD1 012038Z 00006KT 33/11 A3013 RMK A01 T03300114  RH  027%=      5-min Rain = 0
KPD1 012039Z 36005KT 33/11 A3013 RMK A01 T03280114  RH  027%=      5-min Rain = 0
KPD1 012040Z 01006KT 33/12 A3013 RMK A01 T03300119  RH  028%=      5-min Rain = 0
KPD1 012041Z 03008KT 33/12 A3013 RMK A01 T03340118  RH  027%=      5-min Rain = 0
KPD1 012042Z 03006KT 33/12 A3013 RMK A01 T03330115  RH  026%=      5-min Rain = 0
KPD1 012043Z 04006KT 33/11 A3013 RMK A01 T03270112  RH  027%=      5-min Rain = 0
KPD1 012044Z 06006KT 33/11 A3013 RMK A01 T03250113  RH  027%=      5-min Rain = 0
KPD1 012045Z 03011G16KT 33/12 A3013 RMK A01 T03260115  RH  028%=      5-min Rain = 0
KPD1 012046Z 00013KT 33/11 A3013 RMK A01 T03290112  RH  027%=      5-min Rain = 0
KPD1 012047Z 01008G13KT 33/11 A3013 RMK A01 T03270110  RH  026%=      5-min Rain = 0
KPD1 012048Z 02005G10KT 32/11 A3013 RMK A01 T03240112  RH  027%=      5-min Rain = 0
KPD1 012049Z 05006KT 32/12 A3013 RMK A01 T03240115  RH  028%=      5-min Rain = 0
KPD1 012050Z 03012KT 33/11 A3013 RMK A01 T03260112  RH  027%=      5-min Rain = 0
KPD1 012051Z 05009KT 33/11 A3013 RMK A01 T03270107  RH  026%=      5-min Rain = 0
KPD1 012052Z 04008KT 33/11 A3013 RMK A01 T03260105  RH  026%=      5-min Rain = 0
KPD1 012053Z 04006KT 33/11 A3013 RMK A01 T03250108  RH  026%=      5-min Rain = 0
KPD1 012054Z 36007KT 33/11 A3013 RMK A01 T03290113  RH  027%=      5-min Rain = 0
KPD1 012055Z 02005KT 33/11 A3013 RMK A01 T03330110  RH  026%=      5-min Rain = 0
KPD1 012056Z 34005KT 33/11 A3013 RMK A01 T03340106  RH  025%=      5-min Rain = 0
KPD1 012057Z 32004KT 33/10 A3013 RMK A01 T03340104  RH  024%=      5-min Rain = 0
KPD1 012058Z 04005KT 33/11 A3013 RMK A01 T03320106  RH  025%=      5-min Rain = 0
KPD1 012059Z 05007KT 33/12 A3013 RMK A01 T03330117  RH  027%=      5-min Rain = 0
KPD1 012100Z 03010G17KT 33/12 A3013 RMK A01 T03340120  RH  027%=      5-min Rain = 0
KPD1 012101Z 03012KT 33/12 A3013 RMK A01 T03330119  RH  027%=      5-min Rain = 0
KPD1 012102Z 04010KT 33/12 A3013 RMK A01 T03300116  RH  027%=      5-min Rain = 0
KPD1 012103Z 05007KT 33/12 A3013 RMK A01 T03280117  RH  028%=      5-min Rain = 0
KPD1 012104Z 03006G11KT 33/12 A3013 RMK A01 T03280116  RH  027%=      5-min Rain = 0
KPD1 012105Z 04009KT 33/11 A3013 RMK A01 T03300114  RH  027%=      5-min Rain = 0
KPD1 012106Z 04005KT 33/11 A3013 RMK A01 T03290114  RH  027%=      5-min Rain = 0
KPD1 012107Z 34007KT 33/12 A3013 RMK A01 T03290118  RH  028%=      5-min Rain = 0
KPD1 012108Z 33006KT 33/12 A3013 RMK A01 T03320118  RH  027%=      5-min Rain = 0
KPD1 012109Z 31006KT 33/12 A3013 RMK A01 T03320115  RH  027%=      5-min Rain = 0
KPD1 012110Z 33005KT 33/12 A3013 RMK A01 T03310118  RH  027%=      5-min Rain = 0
KPD1 012111Z 36008KT 33/12 A3013 RMK A01 T03340119  RH  027%=      5-min Rain = 0
KPD1 012112Z 02008KT 34/12 A3013 RMK A01 T03350117  RH  027%=      5-min Rain = 0
KPD1 012113Z 01009KT 33/12 A3013 RMK A01 T03340115  RH  026%=      5-min Rain = 0
KPD1 012114Z 36008KT 33/11 A3013 RMK A01 T03290114  RH  027%=      5-min Rain = 0
KPD1 012115Z 35007KT 33/11 A3013 RMK A01 T03250113  RH  027%=      5-min Rain = 0
KPD1 012116Z 02010G15KT 32/11 A3013 RMK A01 T03200111  RH  028%=      5-min Rain = 0
KPD1 012117Z 01005KT 32/11 A3013 RMK A01 T03170111  RH  028%=      5-min Rain = 0
KPD1 012118Z 03005KT 32/11 A3013 RMK A01 T03150112  RH  029%=      5-min Rain = 0
KPD1 012119Z 03006KT 31/11 A3013 RMK A01 T03130112  RH  029%=      5-min Rain = 0
KPD1 012120Z 02011KT 31/11 A3013 RMK A01 T03110111  RH  029%=      5-min Rain = 0
KPD1 012121Z 03009KT 31/11 A3013 RMK A01 T03090111  RH  030%=      5-min Rain = 0
KPD1 012122Z 03009KT 31/11 A3013 RMK A01 T03090113  RH  030%=      5-min Rain = 0
KPD1 012123Z 02009KT 31/11 A3013 RMK A01 T03090112  RH  030%=      5-min Rain = 0
KPD1 012124Z 00009KT 31/11 A3012 RMK A01 T03100111  RH  029%=      5-min Rain = 0
KPD1 012125Z 00010KT 31/11 A3013 RMK A01 T03140113  RH  029%=      5-min Rain = 0
KPD1 012126Z 01008KT 32/11 A3013 RMK A01 T03160111  RH  028%=      5-min Rain = 0
KPD1 012127Z 02005KT 32/11 A3012 RMK A01 T03160107  RH  028%=      5-min Rain = 0
KPD1 012128Z 01005KT 32/11 A3012 RMK A01 T03160109  RH  028%=      5-min Rain = 0
KPD1 012129Z 35004KT 32/12 A3012 RMK A01 T03180115  RH  029%=      5-min Rain = 0
KPD1 012130Z 02006KT 32/11 A3012 RMK A01 T03220113  RH  028%=      5-min Rain = 0
KPD1 012131Z 05007KT 33/11 A3012 RMK A01 T03250113  RH  027%=      5-min Rain = 0
KPD1 012132Z 06007KT 33/11 A3012 RMK A01 T03260109  RH  026%=      5-min Rain = 0
KPD1 012133Z 06004KT 33/11 A3012 RMK A01 T03260106  RH  026%=      5-min Rain = 0
KPD1 012134Z 36007G13KT 33/11 A3012 RMK A01 T03270106  RH  026%=      5-min Rain = 0
KPD1 012135Z 03008KT 33/11 A3012 RMK A01 T03270109  RH  026%=      5-min Rain = 0
KPD1 012136Z 09004KT 33/11 A3012 RMK A01 T03280109  RH  026%=      5-min Rain = 0
KPD1 012137Z 06004KT 33/11 A3012 RMK A01 T03280107  RH  026%=      5-min Rain = 0
KPD1 012138Z 06004KT 33/11 A3012 RMK A01 T03280109  RH  026%=      5-min Rain = 0
KPD1 012139Z 03005KT 33/11 A3012 RMK A01 T03270108  RH  026%=      5-min Rain = 0
KPD1 012140Z 02005KT 33/11 A3012 RMK A01 T03280107  RH  026%=      5-min Rain = 0
KPD1 012141Z 02008G15KT 33/11 A3012 RMK A01 T03310105  RH  025%=      5-min Rain = 0
KPD1 012142Z 01007G13KT 33/10 A3012 RMK A01 T03320102  RH  025%=      5-min Rain = 0
KPD1 012143Z 00007KT 33/10 A3012 RMK A01 T03290101  RH  025%=      5-min Rain = 0
KPD1 012144Z 00009KT 33/10 A3012 RMK A01 T03260102  RH  025%=      5-min Rain = 0
KPD1 012145Z 01009KT 32/10 A3012 RMK A01 T03230100  RH  025%=      5-min Rain = 0
KPD1 012146Z 03007KT 32/10 A3012 RMK A01 T03210104  RH  026%=      5-min Rain = 0
KPD1 012147Z 04009KT 32/10 A3012 RMK A01 T03220104  RH  026%=      5-min Rain = 0
KPD1 012148Z 07009KT 32/10 A3012 RMK A01 T03230102  RH  026%=      5-min Rain = 0
KPD1 012149Z 02006KT 33/10 A3012 RMK A01 T03250103  RH  026%=      5-min Rain = 0
KPD1 012150Z 01007G12KT 33/11 A3012 RMK A01 T03270106  RH  026%=      5-min Rain = 0
KPD1 012151Z 02008KT 33/11 A3012 RMK A01 T03300105  RH  025%=      5-min Rain = 0
KPD1 012152Z 01005KT 33/10 A3012 RMK A01 T03300104  RH  025%=      5-min Rain = 0
KPD1 012153Z 04006G13KT 33/11 A3012 RMK A01 T03300106  RH  025%=      5-min Rain = 0
KPD1 012154Z 06008KT 33/11 A3012 RMK A01 T03310106  RH  025%=      5-min Rain = 0
KPD1 012155Z 04006G11KT 33/11 A3011 RMK A01 T03310106  RH  025%=      5-min Rain = 0
KPD1 012156Z 04006KT 33/11 A3011 RMK A01 T03310106  RH  025%=      5-min Rain = 0
KPD1 012157Z 06008KT 33/11 A3012 RMK A01 T03320105  RH  025%=      5-min Rain = 0
KPD1 012158Z 05006KT 33/10 A3012 RMK A01 T03330103  RH  024%=      5-min Rain = 0
KPD1 012159Z 02007KT 33/11 A3012 RMK A01 T03310105  RH  025%=      5-min Rain = 0
KPD1 012200Z 05009G14KT 33/11 A3012 RMK A01 T03330106  RH  025%=      5-min Rain = 0
KPD1 012201Z 04009KT 33/10 A3012 RMK A01 T03340101  RH  024%=      5-min Rain = 0
KPD1 012202Z 04009KT 33/10 A3012 RMK A01 T03310100  RH  024%=      5-min Rain = 0
KPD1 012203Z 05007KT 33/11 A3012 RMK A01 T03290105  RH  025%=      5-min Rain = 0
KPD1 012204Z 05007KT 33/10 A3012 RMK A01 T03290104  RH  025%=      5-min Rain = 0
KPD1 012205Z 04005KT 33/10 A3011 RMK A01 T03270103  RH  025%=      5-min Rain = 0
KPD1 012206Z 05008KT 33/11 A3011 RMK A01 T03270107  RH  026%=      5-min Rain = 0
KPD1 012207Z 05008KT 33/11 A3011 RMK A01 T03280105  RH  025%=      5-min Rain = 0
KPD1 012208Z 07009KT 33/11 A3011 RMK A01 T03290105  RH  025%=      5-min Rain = 0
KPD1 012209Z 05007G12KT 33/11 A3011 RMK A01 T03290105  RH  025%=      5-min Rain = 0
KPD1 012210Z 04009KT 33/11 A3011 RMK A01 T03290105  RH  025%=      5-min Rain = 0
KPD1 012211Z 04008KT 33/10 A3012 RMK A01 T03290102  RH  025%=      5-min Rain = 0
KPD1 012212Z 06006KT 33/10 A3011 RMK A01 T03280104  RH  025%=      5-min Rain = 0
KPD1 012213Z 04008KT 33/10 A3011 RMK A01 T03280104  RH  025%=      5-min Rain = 0
KPD1 012214Z 03006KT 33/10 A3011 RMK A01 T03280101  RH  025%=      5-min Rain = 0
KPD1 012215Z 04003KT 33/10 A3011 RMK A01 T03260099  RH  025%=      5-min Rain = 0
KPD1 012216Z 05005KT 33/10 A3011 RMK A01 T03260101  RH  025%=      5-min Rain = 0
KPD1 012217Z 09006KT 33/10 A3011 RMK A01 T03270104  RH  026%=      5-min Rain = 0
KPD1 012218Z 10006KT 33/11 A3011 RMK A01 T03310107  RH  025%=      5-min Rain = 0
KPD1 012219Z 10006KT 33/10 A3011 RMK A01 T03340103  RH  024%=      5-min Rain = 0
KPD1 012220Z 10007KT 34/11 A3011 RMK A01 T03350105  RH  024%=      5-min Rain = 0
KPD1 012221Z 10007KT 34/10 A3011 RMK A01 T03360101  RH  024%=      5-min Rain = 0
KPD1 012222Z 09008KT 34/10 A3011 RMK A01 T03370100  RH  024%=      5-min Rain = 0
KPD1 012223Z 10008KT 34/10 A3011 RMK A01 T03360099  RH  023%=      5-min Rain = 0
KPD1 012224Z 07006KT 34/10 A3011 RMK A01 T03360100  RH  024%=      5-min Rain = 0
KPD1 012225Z 02007G12KT 33/10 A3011 RMK A01 T03340098  RH  024%=      5-min Rain = 0
KPD1 012226Z 00006KT 33/10 A3011 RMK A01 T03320098  RH  024%=      5-min Rain = 0
KPD1 012227Z 02007KT 33/10 A3011 RMK A01 T03310099  RH  024%=      5-min Rain = 0
KPD1 012228Z 02008KT 33/10 A3011 RMK A01 T03320099  RH  024%=      5-min Rain = 0
KPD1 012229Z 01006KT 33/10 A3011 RMK A01 T03330098  RH  024%=      5-min Rain = 0
KPD1 012230Z 01007KT 33/10 A3011 RMK A01 T03330098  RH  024%=      5-min Rain = 0
KPD1 012231Z 36007KT 33/10 A3011 RMK A01 T03320098  RH  024%=      5-min Rain = 0
KPD1 012232Z 03006KT 33/10 A3011 RMK A01 T03330095  RH  023%=      5-min Rain = 0
KPD1 012233Z 02008KT 33/09 A3011 RMK A01 T03320092  RH  023%=      5-min Rain = 0
KPD1 012234Z 03005KT 33/09 A3011 RMK A01 T03300092  RH  023%=      5-min Rain = 0
KPD1 012235Z 02005KT 33/09 A3011 RMK A01 T03300092  RH  023%=      5-min Rain = 0
KPD1 012236Z 04004KT 33/09 A3011 RMK A01 T03310092  RH  023%=      5-min Rain = 0
KPD1 012237Z 33002KT 33/09 A3011 RMK A01 T03330094  RH  023%=      5-min Rain = 0
KPD1 012238Z 34003KT 33/09 A3011 RMK A01 T03340093  RH  023%=      5-min Rain = 0
KPD1 012239Z 34005KT 34/10 A3011 RMK A01 T03350095  RH  023%=      5-min Rain = 0
KPD1 012240Z 02005KT 33/10 A3011 RMK A01 T03340095  RH  023%=      5-min Rain = 0
KPD1 012241Z 06004KT 33/09 A3011 RMK A01 T03320094  RH  023%=      5-min Rain = 0
KPD1 012242Z 07007KT 33/09 A3011 RMK A01 T03320091  RH  023%=      5-min Rain = 0
KPD1 012243Z 05007KT 33/09 A3011 RMK A01 T03320089  RH  022%=      5-min Rain = 0
KPD1 012244Z 03007KT 33/09 A3011 RMK A01 T03300086  RH  022%=      5-min Rain = 0
KPD1 012245Z 01007KT 33/09 A3011 RMK A01 T03290088  RH  023%=      5-min Rain = 0
KPD1 012246Z 00006KT 33/09 A3011 RMK A01 T03290087  RH  022%=      5-min Rain = 0
KPD1 012247Z 36008KT 33/09 A3011 RMK A01 T03310086  RH  022%=      5-min Rain = 0
KPD1 012248Z 01006KT 33/08 A3011 RMK A01 T03320084  RH  022%=      5-min Rain = 0
KPD1 012249Z 05006KT 33/08 A3011 RMK A01 T03320083  RH  021%=      5-min Rain = 0
KPD1 012250Z 05008KT 33/08 A3011 RMK A01 T03310082  RH  021%=      5-min Rain = 0
KPD1 012251Z 03007KT 33/08 A3011 RMK A01 T03290079  RH  021%=      5-min Rain = 0
KPD1 012252Z 36010KT 33/08 A3011 RMK A01 T03270083  RH  022%=      5-min Rain = 0
KPD1 012253Z 02009KT 33/09 A3011 RMK A01 T03280086  RH  022%=      5-min Rain = 0
KPD1 012254Z 03011KT 33/08 A3011 RMK A01 T03300083  RH  022%=      5-min Rain = 0
KPD1 012255Z 03009KT 33/08 A3011 RMK A01 T03280081  RH  022%=      5-min Rain = 0
KPD1 012256Z 03006KT 33/08 A3011 RMK A01 T03270083  RH  022%=      5-min Rain = 0
KPD1 012257Z 03009KT 33/08 A3011 RMK A01 T03270084  RH  022%=      5-min Rain = 0
KPD1 012258Z 02005KT 33/08 A3011 RMK A01 T03270083  RH  022%=      5-min Rain = 0
KPD1 012259Z 02007KT 33/08 A3011 RMK A01 T03280082  RH  022%=      5-min Rain = 0
KPD1 012300Z 06005KT 33/08 A3011 RMK A01 T03270080  RH  022%=      5-min Rain = 0
KPD1 012301Z 02003KT 33/08 A3011 RMK A01 T03260083  RH  022%=      5-min Rain = 0
KPD1 012302Z 02004G10KT 33/09 A3011 RMK A01 T03280086  RH  022%=      5-min Rain = 0
KPD1 012303Z 04009KT 33/08 A3011 RMK A01 T03290082  RH  022%=      5-min Rain = 0
KPD1 012304Z 04007KT 33/08 A3011 RMK A01 T03290081  RH  022%=      5-min Rain = 0
KPD1 012305Z 03005KT 33/08 A3011 RMK A01 T03270077  RH  021%=      5-min Rain = 0
KPD1 012306Z 04003KT 33/08 A301 RMK A01 T03260083  RH  022%=      5-min Rain = 0
KPD1 012307Z 03003KT 33/08 A301 RMK A01 T03280081  RH  022%=      5-min Rain = 0
KPD1 012308Z 01002KT 33/08 A301 RMK A01 T03290078  RH  021%=      5-min Rain = 0
KPD1 012309Z 00003KT 33/08 A301 RMK A01 T03290077  RH  021%=      5-min Rain = 0
KPD1 012310Z 01006KT 33/08 A301 RMK A01 T03290079  RH  021%=      5-min Rain = 0
KPD1 012311Z 03004KT 33/08 A301 RMK A01 T03280078  RH  021%=      5-min Rain = 0
KPD1 012312Z 03005KT 33/08 A301 RMK A01 T03280080  RH  022%=      5-min Rain = 0
KPD1 012313Z 04007KT 33/07 A301 RMK A01 T03290073  RH  020%=      5-min Rain = 0
KPD1 012314Z 03008KT 33/07 A301 RMK A01 T03290073  RH  020%=      5-min Rain = 0
KPD1 012315Z 03010KT 33/07 A301 RMK A01 T03290072  RH  020%=      5-min Rain = 0
KPD1 012316Z 06007KT 33/07 A301 RMK A01 T03270072  RH  021%=      5-min Rain = 0
KPD1 012317Z 05007KT 33/07 A301 RMK A01 T03270073  RH  021%=      5-min Rain = 0
KPD1 012318Z 01007KT 33/07 A301 RMK A01 T03270074  RH  021%=      5-min Rain = 0
KPD1 012319Z 35009KT 33/08 A301 RMK A01 T03280076  RH  021%=      5-min Rain = 0
KPD1 012320Z 33008KT 33/07 A301 RMK A01 T03290072  RH  020%=      5-min Rain = 0
KPD1 012321Z 33007KT 33/07 A301 RMK A01 T03300069  RH  020%=      5-min Rain = 0
KPD1 012322Z 04003KT 33/07 A301 RMK A01 T03300070  RH  020%=      5-min Rain = 0
KPD1 012323Z 06005KT 33/07 A301 RMK A01 T03300073  RH  020%=      5-min Rain = 0
KPD1 012324Z 04005KT 33/07 A301 RMK A01 T03290074  RH  021%=      5-min Rain = 0
KPD1 012325Z 03007KT 33/08 A301 RMK A01 T03270075  RH  021%=      5-min Rain = 0
KPD1 012326Z 01007KT 33/08 A301 RMK A01 T03260075  RH  021%=      5-min Rain = 0
KPD1 012327Z 00008KT 33/08 A301 RMK A01 T03250079  RH  022%=      5-min Rain = 0
KPD1 012328Z 35005KT 32/08 A301 RMK A01 T03240083  RH  022%=      5-min Rain = 0
KPD1 012329Z 01003KT 33/09 A301 RMK A01 T03250086  RH  023%=      5-min Rain = 0
KPD1 012330Z 35002KT 33/08 A301 RMK A01 T03250082  RH  022%=      5-min Rain = 0
KPD1 012331Z 01002KT 33/08 A301 RMK A01 T03250083  RH  022%=      5-min Rain = 0
KPD1 012332Z 04002KT 33/08 A301 RMK A01 T03260084  RH  022%=      5-min Rain = 0
KPD1 012333Z 06003KT 33/09 A301 RMK A01 T03260085  RH  023%=      5-min Rain = 0
KPD1 012334Z 03004KT 33/08 A301 RMK A01 T03270082  RH  022%=      5-min Rain = 0
KPD1 012335Z 05003KT 33/08 A301 RMK A01 T03250081  RH  022%=      5-min Rain = 0
KPD1 012336Z 08003KT 32/08 A301 RMK A01 T03240083  RH  022%=      5-min Rain = 0
KPD1 012337Z 04003KT 32/08 A301 RMK A01 T03240084  RH  023%=      5-min Rain = 0
KPD1 012338Z 04003KT 33/09 A301 RMK A01 T03250087  RH  023%=      5-min Rain = 0
KPD1 012339Z 05006KT 33/09 A301 RMK A01 T03260088  RH  023%=      5-min Rain = 0
KPD1 012340Z 04004KT 33/09 A301 RMK A01 T03260091  RH  023%=      5-min Rain = 0
KPD1 012341Z 04007KT 33/09 A301 RMK A01 T03260093  RH  024%=      5-min Rain = 0
KPD1 012342Z 05006KT 33/09 A301 RMK A01 T03250091  RH  024%=      5-min Rain = 0
KPD1 012343Z 05010KT 32/09 A301 RMK A01 T03240089  RH  023%=      5-min Rain = 0
KPD1 012344Z 06008G13KT 32/09 A301 RMK A01 T03230087  RH  023%=      5-min Rain = 0
KPD1 012345Z 06009KT 32/09 A301 RMK A01 T03220087  RH  023%=      5-min Rain = 0
KPD1 012346Z 06008KT 32/09 A301 RMK A01 T03220087  RH  023%=      5-min Rain = 0
KPD1 012347Z 07008KT 32/09 A301 RMK A01 T03220088  RH  024%=      5-min Rain = 0
KPD1 012348Z 07009KT 32/09 A301 RMK A01 T03220086  RH  023%=      5-min Rain = 0
KPD1 012349Z 07008KT 32/09 A301 RMK A01 T03220085  RH  023%=      5-min Rain = 0
KPD1 012350Z 08006KT 32/08 A301 RMK A01 T03210083  RH  023%=      5-min Rain = 0
KPD1 012351Z 08005KT 32/09 A301 RMK A01 T03210087  RH  023%=      5-min Rain = 0
KPD1 012352Z 09007KT 32/09 A301 RMK A01 T03220087  RH  023%=      5-min Rain = 0
KPD1 012353Z 08006KT 32/09 A301 RMK A01 T03230085  RH  023%=      5-min Rain = 0
KPD1 012354Z 07007KT 32/08 A301 RMK A01 T03230084  RH  023%=      5-min Rain = 0
KPD1 012355Z 07007KT 32/08 A301 RMK A01 T03230084  RH  023%=      5-min Rain = 0
KPD1 012356Z 09006KT 32/09 A301 RMK A01 T03230085  RH  023%=      5-min Rain = 0
KPD1 012357Z 06005KT 32/09 A301 RMK A01 T03230085  RH  023%=      5-min Rain = 0
KPD1 012358Z 06005KT 32/09 A301 RMK A01 T03230085  RH  023%=      5-min Rain = 0
KPD1 012359Z 03006KT 32/09 A301 RMK A01 T03220086  RH  023%=      5-min Rain = 0
KPD1 020000Z 34002KT 32/09 A301 RMK A01 T03220086  RH  023%=      5-min Rain = 0
KPD1 020001Z 05004KT 32/09 A301 RMK A01 T03220089  RH  024%=      5-min Rain = 0
KPD1 020002Z 06003KT 32/09 A301 RMK A01 T03230086  RH  023%=      5-min Rain = 0
KPD1 020003Z 04003KT 32/09 A301 RMK A01 T03240087  RH  023%=      5-min Rain = 0
KPD1 020004Z 06005KT 32/09 A301 RMK A01 T03240087  RH  023%=      5-min Rain = 0
KPD1 020005Z 01006KT 33/09 A301 RMK A01 T03250087  RH  023%=      5-min Rain = 0
KPD1 020006Z 00007KT 32/09 A301 RMK A01 T03230086  RH  023%=      5-min Rain = 0
KPD1 020007Z 04005KT 32/09 A301 RMK A01 T03220087  RH  023%=      5-min Rain = 0
KPD1 020008Z 04006KT 32/09 A301 RMK A01 T03220086  RH  023%=      5-min Rain = 0
KPD1 020009Z 06005KT 32/08 A301 RMK A01 T03210084  RH  023%=      5-min Rain = 0
KPD1 020010Z 05007KT 32/08 A301 RMK A01 T03210083  RH  023%=      5-min Rain = 0
KPD1 020011Z 04008KT 32/08 A301 RMK A01 T03200081  RH  023%=      5-min Rain = 0
KPD1 020012Z 05006KT 32/08 A301 RMK A01 T03180077  RH  022%=      5-min Rain = 0
KPD1 020013Z 07006KT 32/08 A301 RMK A01 T03180081  RH  023%=      5-min Rain = 0
KPD1 020014Z 04006KT 32/08 A301 RMK A01 T03180082  RH  023%=      5-min Rain = 0
KPD1 020015Z 05005KT 32/08 A301 RMK A01 T03180082  RH  023%=      5-min Rain = 0
KPD1 020016Z 06003KT 32/08 A301 RMK A01 T03170083  RH  023%=      5-min Rain = 0
KPD1 020017Z 07006KT 32/08 A301 RMK A01 T03170082  RH  023%=      5-min Rain = 0
KPD1 020018Z 05006KT 32/08 A301 RMK A01 T03170082  RH  023%=      5-min Rain = 0
KPD1 020019Z 03006KT 32/08 A301 RMK A01 T03180082  RH  023%=      5-min Rain = 0
KPD1 020020Z 04005KT 32/08 A301 RMK A01 T03170081  RH  023%=      5-min Rain = 0
KPD1 020021Z 05007KT 32/08 A301 RMK A01 T03170081  RH  023%=      5-min Rain = 0
KPD1 020022Z 07007KT 32/08 A301 RMK A01 T03170079  RH  023%=      5-min Rain = 0
KPD1 020023Z 07006KT 32/08 A301 RMK A01 T03160080  RH  023%=      5-min Rain = 0
KPD1 020024Z 06006KT 32/08 A301 RMK A01 T03160079  RH  023%=      5-min Rain = 0
KPD1 020025Z 05006KT 32/08 A301 RMK A01 T03160078  RH  023%=      5-min Rain = 0
KPD1 020026Z 04008KT 32/08 A301 RMK A01 T03160078  RH  023%=      5-min Rain = 0
KPD1 020027Z 02008KT 32/08 A301 RMK A01 T03150077  RH  023%=      5-min Rain = 0
KPD1 020028Z 03006KT 31/08 A301 RMK A01 T03140077  RH  023%=      5-min Rain = 0
KPD1 020029Z 03006KT 31/08 A301 RMK A01 T03140079  RH  023%=      5-min Rain = 0
KPD1 020030Z 03006KT 31/08 A301 RMK A01 T03140079  RH  023%=      5-min Rain = 0
KPD1 020031Z 02005KT 31/08 A301 RMK A01 T03140078  RH  023%=      5-min Rain = 0
KPD1 020032Z 02005KT 31/08 A301 RMK A01 T03140077  RH  023%=      5-min Rain = 0
KPD1 020033Z 02002KT 31/08 A301 RMK A01 T03130078  RH  023%=      5-min Rain = 0
KPD1 020034Z 06002KT 31/08 A301 RMK A01 T03140083  RH  024%=      5-min Rain = 0
KPD1 020035Z 07006KT 32/08 A301 RMK A01 T03150081  RH  023%=      5-min Rain = 0
KPD1 020036Z 06004KT 32/08 A301 RMK A01 T03160075  RH  022%=      5-min Rain = 0
KPD1 020037Z 05003KT 32/07 A301 RMK A01 T03150074  RH  022%=      5-min Rain = 0
KPD1 020038Z 05003KT 32/08 A301 RMK A01 T03150076  RH  023%=      5-min Rain = 0
KPD1 020039Z 06003KT 32/08 A301 RMK A01 T03150080  RH  023%=      5-min Rain = 0
KPD1 020040Z 03004KT 32/08 A301 RMK A01 T03150079  RH  023%=      5-min Rain = 0
KPD1 020041Z 02003KT 32/08 A301 RMK A01 T03150077  RH  023%=      5-min Rain = 0
KPD1 020042Z 01002KT 31/08 A301 RMK A01 T03140077  RH  023%=      5-min Rain = 0
KPD1 020043Z 01004KT 31/08 A301 RMK A01 T03140079  RH  023%=      5-min Rain = 0
KPD1 020044Z 01006KT 31/08 A301 RMK A01 T03140078  RH  023%=      5-min Rain = 0
KPD1 020045Z 36005KT 31/08 A301 RMK A01 T03140077  RH  023%=      5-min Rain = 0
KPD1 020046Z 00005KT 31/08 A301 RMK A01 T03130077  RH  023%=      5-min Rain = 0
KPD1 020047Z 03005KT 31/08 A301 RMK A01 T03130077  RH  023%=      5-min Rain = 0
KPD1 020048Z 03003KT 31/08 A3011 RMK A01 T03130081  RH  024%=      5-min Rain = 0
KPD1 020049Z 03006KT 31/08 A3011 RMK A01 T03120080  RH  024%=      5-min Rain = 0
KPD1 020050Z 03007KT 31/08 A3011 RMK A01 T03110081  RH  024%=      5-min Rain = 0
KPD1 020051Z 04007KT 31/08 A3011 RMK A01 T03100081  RH  024%=      5-min Rain = 0
KPD1 020052Z 03006KT 31/08 A3011 RMK A01 T03090080  RH  024%=      5-min Rain = 0
KPD1 020053Z 04005KT 31/08 A3011 RMK A01 T03080082  RH  024%=      5-min Rain = 0
KPD1 020054Z 04006KT 31/08 A3011 RMK A01 T03080081  RH  024%=      5-min Rain = 0
KPD1 020055Z 03006KT 31/08 A3011 RMK A01 T03080082  RH  024%=      5-min Rain = 0
KPD1 020056Z 03004KT 31/08 A3011 RMK A01 T03070082  RH  025%=      5-min Rain = 0
KPD1 020057Z 06004KT 31/08 A3011 RMK A01 T03070083  RH  025%=      5-min Rain = 0
KPD1 020058Z 03004KT 31/08 A3011 RMK A01 T03070083  RH  025%=      5-min Rain = 0
KPD1 020059Z 04006KT 31/08 A3011 RMK A01 T03070081  RH  025%=      5-min Rain = 0
KPD1 020100Z 03006KT 31/08 A3011 RMK A01 T03060080  RH  024%=      5-min Rain = 0
KPD1 020101Z 03009KT 31/08 A3011 RMK A01 T03050079  RH  024%=      5-min Rain = 0
KPD1 020102Z 03008KT 31/08 A3011 RMK A01 T03050078  RH  024%=      5-min Rain = 0
KPD1 020103Z 03006KT 30/08 A3011 RMK A01 T03040078  RH  024%=      5-min Rain = 0
KPD1 020104Z 03005KT 30/08 A3011 RMK A01 T03040078  RH  024%=      5-min Rain = 0
KPD1 020105Z 04006KT 30/08 A3011 RMK A01 T03040078  RH  024%=      5-min Rain = 0
KPD1 020106Z 04005KT 30/08 A3011 RMK A01 T03040079  RH  024%=      5-min Rain = 0
KPD1 020107Z 04006KT 30/08 A3011 RMK A01 T03030078  RH  025%=      5-min Rain = 0
KPD1 020108Z 03007KT 30/08 A3011 RMK A01 T03030078  RH  024%=      5-min Rain = 0
KPD1 020109Z 03007KT 30/08 A3011 RMK A01 T03030077  RH  024%=      5-min Rain = 0
KPD1 020110Z 03005KT 30/08 A3011 RMK A01 T03030078  RH  025%=      5-min Rain = 0
KPD1 020111Z 02004KT 30/08 A3011 RMK A01 T03020078  RH  025%=      5-min Rain = 0
KPD1 020112Z 03004KT 30/08 A3011 RMK A01 T03020079  RH  025%=      5-min Rain = 0
KPD1 020113Z 02005KT 30/08 A3011 RMK A01 T03020079  RH  025%=      5-min Rain = 0
KPD1 020114Z 02005KT 30/08 A3011 RMK A01 T03010078  RH  025%=      5-min Rain = 0
KPD1 020115Z 03004KT 30/08 A3011 RMK A01 T03010077  RH  025%=      5-min Rain = 0
KPD1 020116Z 02004KT 30/08 A3011 RMK A01 T03000076  RH  025%=      5-min Rain = 0
KPD1 020117Z 03005KT 30/08 A3011 RMK A01 T02990077  RH  025%=      5-min Rain = 0
KPD1 020118Z 04003KT 30/08 A3011 RMK A01 T02980077  RH  025%=      5-min Rain = 0
KPD1 020119Z 04004KT 30/08 A3011 RMK A01 T02970076  RH  025%=      5-min Rain = 0
KPD1 020120Z 04003KT 30/07 A3011 RMK A01 T02960074  RH  025%=      5-min Rain = 0
KPD1 020121Z 04004KT 30/07 A3011 RMK A01 T02950074  RH  025%=      5-min Rain = 0
KPD1 020122Z 03003KT 30/07 A3011 RMK A01 T02950073  RH  025%=      5-min Rain = 0
KPD1 020123Z 02005KT 29/07 A3011 RMK A01 T02940074  RH  025%=      5-min Rain = 0
KPD1 020124Z 01003KT 29/07 A3011 RMK A01 T02940073  RH  025%=      5-min Rain = 0
KPD1 020125Z 03003KT 29/07 A3011 RMK A01 T02930074  RH  025%=      5-min Rain = 0
KPD1 020126Z 03003KT 29/08 A3011 RMK A01 T02930075  RH  025%=      5-min Rain = 0
KPD1 020127Z 03004KT 29/08 A3011 RMK A01 T02920075  RH  026%=      5-min Rain = 0
KPD1 020128Z 03004KT 29/08 A3011 RMK A01 T02920076  RH  026%=      5-min Rain = 0
KPD1 020129Z 03004KT 29/08 A3011 RMK A01 T02910076  RH  026%=      5-min Rain = 0
KPD1 020130Z 04004KT 29/08 A3011 RMK A01 T02900076  RH  026%=      5-min Rain = 0
KPD1 020131Z 03004KT 29/08 A3011 RMK A01 T02900077  RH  026%=      5-min Rain = 0
KPD1 020132Z 03003KT 29/08 A3011 RMK A01 T02900077  RH  026%=      5-min Rain = 0
KPD1 020133Z 02003KT 29/08 A3011 RMK A01 T02890077  RH  026%=      5-min Rain = 0
KPD1 020134Z 03003KT 29/08 A3011 RMK A01 T02880077  RH  027%=      5-min Rain = 0
KPD1 020135Z 03003KT 29/08 A3011 RMK A01 T02870078  RH  027%=      5-min Rain = 0
KPD1 020136Z 05002KT 29/08 A3012 RMK A01 T02870079  RH  027%=      5-min Rain = 0
KPD1 020137Z 06003KT 29/08 A3012 RMK A01 T02850081  RH  028%=      5-min Rain = 0
KPD1 020138Z 07003KT 28/08 A3012 RMK A01 T02840083  RH  028%=      5-min Rain = 0
KPD1 020139Z 06004KT 28/08 A3012 RMK A01 T02840084  RH  029%=      5-min Rain = 0
KPD1 020140Z 06004KT 28/09 A3012 RMK A01 T02830086  RH  029%=      5-min Rain = 0
KPD1 020141Z 06003KT 28/09 A3012 RMK A01 T02830087  RH  029%=      5-min Rain = 0
KPD1 020142Z 06004KT 28/09 A3012 RMK A01 T02830089  RH  030%=      5-min Rain = 0
KPD1 020143Z 06003KT 28/09 A3012 RMK A01 T02830092  RH  030%=      5-min Rain = 0
KPD1 020144Z 05003KT 28/09 A3012 RMK A01 T02830094  RH  031%=      5-min Rain = 0
KPD1 020145Z 06003KT 28/10 A3012 RMK A01 T02830097  RH  031%=      5-min Rain = 0
KPD1 020146Z 07003KT 28/10 A3012 RMK A01 T02820098  RH  032%=      5-min Rain = 0
KPD1 020147Z 08004KT 28/10 A3012 RMK A01 T02820100  RH  032%=      5-min Rain = 0
KPD1 020148Z 08004KT 28/10 A3012 RMK A01 T02810100  RH  032%=      5-min Rain = 0
KPD1 020149Z 08003KT 28/10 A3012 RMK A01 T02810100  RH  032%=      5-min Rain = 0
KPD1 020150Z 07003KT 28/10 A3011 RMK A01 T02800100  RH  032%=      5-min Rain = 0
KPD1 020151Z 07003KT 28/10 A3012 RMK A01 T02800100  RH  033%=      5-min Rain = 0
KPD1 020152Z 07003KT 28/10 A3012 RMK A01 T02790101  RH  033%=      5-min Rain = 0
KPD1 020153Z 07003KT 28/10 A3012 RMK A01 T02790102  RH  033%=      5-min Rain = 0
KPD1 020154Z 07002KT 28/10 A3012 RMK A01 T02780103  RH  033%=      5-min Rain = 0
KPD1 020155Z 08002KT 28/11 A3012 RMK A01 T02780106  RH  034%=      5-min Rain = 0
KPD1 020156Z 08003KT 28/11 A3012 RMK A01 T02770106  RH  034%=      5-min Rain = 0
KPD1 020157Z 07003KT 28/11 A3012 RMK A01 T02760107  RH  035%=      5-min Rain = 0
KPD1 020158Z 06002KT 28/11 A3012 RMK A01 T02750107  RH  035%=      5-min Rain = 0
KPD1 020159Z 05003KT 27/11 A3012 RMK A01 T02740108  RH  035%=      5-min Rain = 0
KPD1 020200Z 07002KT 27/11 A3012 RMK A01 T02740109  RH  036%=      5-min Rain = 0
KPD1 020201Z 07004KT 27/11 A3012 RMK A01 T02740109  RH  036%=      5-min Rain = 0
KPD1 020202Z 06003KT 27/11 A3012 RMK A01 T02740110  RH  036%=      5-min Rain = 0
KPD1 020203Z 06002KT 28/11 A3012 RMK A01 T02750111  RH  036%=      5-min Rain = 0
KPD1 020204Z 06002KT 28/11 A3012 RMK A01 T02750111  RH  036%=      5-min Rain = 0
KPD1 020205Z 06003KT 28/11 A3012 RMK A01 T02750111  RH  036%=      5-min Rain = 0
KPD1 020206Z 04003KT 28/11 A3012 RMK A01 T02750112  RH  036%=      5-min Rain = 0
KPD1 020207Z 03002KT 27/11 A3012 RMK A01 T02740112  RH  036%=      5-min Rain = 0
KPD1 020208Z 04003KT 27/11 A3012 RMK A01 T02730112  RH  036%=      5-min Rain = 0
KPD1 020209Z 04003KT 27/11 A3012 RMK A01 T02720112  RH  037%=      5-min Rain = 0
KPD1 020210Z 01003KT 27/11 A3012 RMK A01 T02710110  RH  037%=      5-min Rain = 0
KPD1 020211Z 03002KT 27/11 A3012 RMK A01 T02710111  RH  037%=      5-min Rain = 0
KPD1 020212Z 02002KT 27/11 A3012 RMK A01 T02700112  RH  037%=      5-min Rain = 0
KPD1 020213Z 34001KT 27/11 A3012 RMK A01 T02690114  RH  038%=      5-min Rain = 0
KPD1 020214Z 36001KT 27/11 A3012 RMK A01 T02670112  RH  038%=      5-min Rain = 0
KPD1 020215Z 35000KT 27/11 A3012 RMK A01 T02650113  RH  039%=      5-min Rain = 0
KPD1 020216Z 35002KT 26/11 A3013 RMK A01 T02640111  RH  038%=      5-min Rain = 0
KPD1 020217Z 36002KT 26/11 A3013 RMK A01 T02630109  RH  038%=      5-min Rain = 0
KPD1 020218Z 02001KT 26/11 A3013 RMK A01 T02620111  RH  039%=      5-min Rain = 0
KPD1 020219Z 04002KT 26/11 A3013 RMK A01 T02620111  RH  039%=      5-min Rain = 0
KPD1 020220Z 04002KT 26/11 A3013 RMK A01 T02610112  RH  039%=      5-min Rain = 0
KPD1 020221Z 09001KT 26/11 A3013 RMK A01 T02610112  RH  039%=      5-min Rain = 0
KPD1 020222Z 02000KT 26/11 A3013 RMK A01 T02610114  RH  040%=      5-min Rain = 0
KPD1 020223Z 00000KT 26/12 A3013 RMK A01 T02590115  RH  041%=      5-min Rain = 0
KPD1 020224Z 05001KT 26/11 A3013 RMK A01 T02570113  RH  041%=      5-min Rain = 0
KPD1 020225Z 00000KT 26/11 A3013 RMK A01 T02570113  RH  041%=      5-min Rain = 0
KPD1 020226Z 10001KT 26/12 A3013 RMK A01 T02560117  RH  042%=      5-min Rain = 0
KPD1 020227Z 13002KT 26/12 A3013 RMK A01 T02550115  RH  042%=      5-min Rain = 0
KPD1 020228Z 14001KT 25/12 A3013 RMK A01 T02540116  RH  042%=      5-min Rain = 0
KPD1 020229Z 17000KT 25/11 A3013 RMK A01 T02530114  RH  042%=      5-min Rain = 0
KPD1 020230Z 20000KT 25/12 A3013 RMK A01 T02530115  RH  042%=      5-min Rain = 0
KPD1 020231Z 00000KT 25/12 A3013 RMK A01 T02530116  RH  042%=      5-min Rain = 0
KPD1 020232Z 00000KT 25/12 A3013 RMK A01 T02530119  RH  043%=      5-min Rain = 0
KPD1 020233Z 00000KT 25/12 A3013 RMK A01 T02530120  RH  043%=      5-min Rain = 0
KPD1 020234Z 12001KT 25/12 A3013 RMK A01 T02520120  RH  044%=      5-min Rain = 0
KPD1 020235Z 08001KT 25/12 A3013 RMK A01 T02510118  RH  043%=      5-min Rain = 0
KPD1 020236Z 00000KT 25/12 A3013 RMK A01 T02510116  RH  043%=      5-min Rain = 0
KPD1 020237Z 32000KT 25/12 A3013 RMK A01 T02520117  RH  043%=      5-min Rain = 0
KPD1 020238Z 35000KT 25/12 A3013 RMK A01 T02530120  RH  044%=      5-min Rain = 0
KPD1 020239Z 34000KT 25/12 A3013 RMK A01 T02530120  RH  044%=      5-min Rain = 0
KPD1 020240Z 34001KT 25/12 A3013 RMK A01 T02520118  RH  043%=      5-min Rain = 0
KPD1 020241Z 36001KT 25/12 A3013 RMK A01 T02520116  RH  042%=      5-min Rain = 0
KPD1 020242Z 36001KT 25/12 A3013 RMK A01 T02530118  RH  043%=      5-min Rain = 0
KPD1 020243Z 34001KT 25/12 A3013 RMK A01 T02520119  RH  043%=      5-min Rain = 0
KPD1 020244Z 34001KT 25/12 A3013 RMK A01 T02520120  RH  044%=      5-min Rain = 0
KPD1 020245Z 33001KT 25/12 A3013 RMK A01 T02510121  RH  044%=      5-min Rain = 0
KPD1 020246Z 34000KT 25/12 A3013 RMK A01 T02500120  RH  044%=      5-min Rain = 0
KPD1 020247Z 29000KT 25/12 A3013 RMK A01 T02490119  RH  044%=      5-min Rain = 0
KPD1 020248Z 16001KT 25/12 A3013 RMK A01 T02490117  RH  044%=      5-min Rain = 0
KPD1 020249Z 08003KT 25/12 A3013 RMK A01 T02500118  RH  044%=      5-min Rain = 0
KPD1 020250Z 06003KT 25/12 A3013 RMK A01 T02520117  RH  043%=      5-min Rain = 0
KPD1 020251Z 06002KT 26/12 A3013 RMK A01 T02560116  RH  042%=      5-min Rain = 0
KPD1 020252Z 10002KT 26/12 A3014 RMK A01 T02590118  RH  042%=      5-min Rain = 0
KPD1 020253Z 12002KT 26/12 A3014 RMK A01 T02590118  RH  041%=      5-min Rain = 0
KPD1 020254Z 19002KT 26/12 A3014 RMK A01 T02590119  RH  042%=      5-min Rain = 0
KPD1 020255Z 20002KT 26/12 A3014 RMK A01 T02560118  RH  042%=      5-min Rain = 0
KPD1 020256Z 23003KT 25/12 A3014 RMK A01 T02520119  RH  043%=      5-min Rain = 0
KPD1 020257Z 19003KT 25/12 A3014 RMK A01 T02490117  RH  044%=      5-min Rain = 0
KPD1 020258Z 18003KT 25/12 A3014 RMK A01 T02480115  RH  043%=      5-min Rain = 0
KPD1 020259Z 17003KT 25/12 A3014 RMK A01 T02480116  RH  044%=      5-min Rain = 0
KPD1 020300Z 15004KT 25/12 A3014 RMK A01 T02480117  RH  044%=      5-min Rain = 0
KPD1 020301Z 14003KT 25/12 A3014 RMK A01 T02470117  RH  044%=      5-min Rain = 0
KPD1 020302Z 13002KT 25/12 A3014 RMK A01 T02480118  RH  044%=      5-min Rain = 0
KPD1 020303Z 14003KT 25/12 A3014 RMK A01 T02480117  RH  044%=      5-min Rain = 0
KPD1 020304Z 15002KT 25/12 A3014 RMK A01 T02480117  RH  044%=      5-min Rain = 0
KPD1 020305Z 24001KT 25/12 A3014 RMK A01 T02480117  RH  044%=      5-min Rain = 0
KPD1 020306Z 22002KT 25/12 A3014 RMK A01 T02480118  RH  044%=      5-min Rain = 0
KPD1 020307Z 23002KT 25/12 A3014 RMK A01 T02480117  RH  044%=      5-min Rain = 0
KPD1 020308Z 22004KT 25/12 A3014 RMK A01 T02470117  RH  044%=      5-min Rain = 0
KPD1 020309Z 21004KT 25/12 A3014 RMK A01 T02450118  RH  045%=      5-min Rain = 0
KPD1 020310Z 20004KT 25/12 A3014 RMK A01 T02450117  RH  045%=      5-min Rain = 0
KPD1 020311Z 19003KT 25/12 A3014 RMK A01 T02460118  RH  045%=      5-min Rain = 0
KPD1 020312Z 18004KT 25/12 A3014 RMK A01 T02460118  RH  045%=      5-min Rain = 0
KPD1 020313Z 17004KT 25/12 A3014 RMK A01 T02460118  RH  045%=      5-min Rain = 0
KPD1 020314Z 17004KT 25/12 A3014 RMK A01 T02460117  RH  044%=      5-min Rain = 0
KPD1 020315Z 18003KT 25/12 A3014 RMK A01 T02480118  RH  044%=      5-min Rain = 0
KPD1 020316Z 16002KT 25/12 A3014 RMK A01 T02500118  RH  044%=      5-min Rain = 0
KPD1 020317Z 17003KT 25/12 A3014 RMK A01 T02500118  RH  043%=      5-min Rain = 0
KPD1 020318Z 15002KT 25/12 A3014 RMK A01 T02510118  RH  043%=      5-min Rain = 0
KPD1 020319Z 18002KT 25/12 A3015 RMK A01 T02510118  RH  043%=      5-min Rain = 0
KPD1 020320Z 17003KT 25/12 A3015 RMK A01 T02500117  RH  043%=      5-min Rain = 0
KPD1 020321Z 15004KT 25/12 A3015 RMK A01 T02500118  RH  044%=      5-min Rain = 0
KPD1 020322Z 16005KT 25/12 A3015 RMK A01 T02500118  RH  044%=      5-min Rain = 0
KPD1 020323Z 15005KT 25/12 A3015 RMK A01 T02500117  RH  044%=      5-min Rain = 0
KPD1 020324Z 15004KT 25/12 A3015 RMK A01 T02520117  RH  043%=      5-min Rain = 0
KPD1 020325Z 13003KT 26/12 A3015 RMK A01 T02550118  RH  042%=      5-min Rain = 0
KPD1 020326Z 13002KT 26/12 A3015 RMK A01 T02570118  RH  042%=      5-min Rain = 0
KPD1 020327Z 14002KT 26/12 A3015 RMK A01 T02580118  RH  042%=      5-min Rain = 0
KPD1 020328Z 11002KT 26/12 A3015 RMK A01 T02580119  RH  042%=      5-min Rain = 0
KPD1 020329Z 11003KT 26/12 A3015 RMK A01 T02570119  RH  042%=      5-min Rain = 0
KPD1 020330Z 12003KT 26/12 A3015 RMK A01 T02560117  RH  042%=      5-min Rain = 0
KPD1 020331Z 14002KT 26/12 A3015 RMK A01 T02560118  RH  042%=      5-min Rain = 0
KPD1 020332Z 14002KT 26/12 A3015 RMK A01 T02560118  RH  042%=      5-min Rain = 0
KPD1 020333Z 14002KT 26/12 A3015 RMK A01 T02550117  RH  042%=      5-min Rain = 0
KPD1 020334Z 14002KT 25/12 A3015 RMK A01 T02540117  RH  042%=      5-min Rain = 0
KPD1 020335Z 14003KT 25/12 A3015 RMK A01 T02540117  RH  042%=      5-min Rain = 0
KPD1 020336Z 15004KT 25/12 A3015 RMK A01 T02540117  RH  042%=      5-min Rain = 0
KPD1 020337Z 14004KT 25/12 A3016 RMK A01 T02540116  RH  042%=      5-min Rain = 0
KPD1 020338Z 14004KT 25/12 A3016 RMK A01 T02540117  RH  042%=      5-min Rain = 0
KPD1 020339Z 13003KT 25/12 A3016 RMK A01 T02540117  RH  043%=      5-min Rain = 0
KPD1 020340Z 15002KT 25/12 A3016 RMK A01 T02530118  RH  043%=      5-min Rain = 0
KPD1 020341Z 15002KT 25/12 A3016 RMK A01 T02530117  RH  043%=      5-min Rain = 0
KPD1 020342Z 14003KT 25/12 A3015 RMK A01 T02520117  RH  043%=      5-min Rain = 0
KPD1 020343Z 15002KT 25/12 A3016 RMK A01 T02510117  RH  043%=      5-min Rain = 0
KPD1 020344Z 16002KT 25/12 A3016 RMK A01 T02510118  RH  043%=      5-min Rain = 0
KPD1 020345Z 14003KT 25/12 A3016 RMK A01 T02500118  RH  044%=      5-min Rain = 0
KPD1 020346Z 15003KT 25/12 A3016 RMK A01 T02490117  RH  044%=      5-min Rain = 0
KPD1 020347Z 15002KT 25/12 A3016 RMK A01 T02490117  RH  044%=      5-min Rain = 0
KPD1 020348Z 16003KT 25/12 A3016 RMK A01 T02480116  RH  044%=      5-min Rain = 0
KPD1 020349Z 17003KT 25/12 A3016 RMK A01 T02480117  RH  044%=      5-min Rain = 0
KPD1 020350Z 17004KT 25/12 A3016 RMK A01 T02470117  RH  044%=      5-min Rain = 0
KPD1 020351Z 17004KT 25/12 A3016 RMK A01 T02480117  RH  044%=      5-min Rain = 0
KPD1 020352Z 16003KT 25/12 A3016 RMK A01 T02480118  RH  044%=      5-min Rain = 0
KPD1 020353Z 15004KT 25/12 A3016 RMK A01 T02480118  RH  044%=      5-min Rain = 0
KPD1 020354Z 14005KT 25/12 A3016 RMK A01 T02480118  RH  044%=      5-min Rain = 0
KPD1 020355Z 15005KT 25/12 A3016 RMK A01 T02480118  RH  044%=      5-min Rain = 0
KPD1 020356Z 15004KT 25/12 A3016 RMK A01 T02480119  RH  044%=      5-min Rain = 0
KPD1 020357Z 15004KT 25/12 A3016 RMK A01 T02480118  RH  044%=      5-min Rain = 0
KPD1 020358Z 15005KT 25/12 A3016 RMK A01 T02480117  RH  044%=      5-min Rain = 0
KPD1 020359Z 15005KT 25/12 A3016 RMK A01 T02480117  RH  044%=      5-min Rain = 0
KPD1 020400Z 15004KT 25/12 A3016 RMK A01 T02480117  RH  044%=      5-min Rain = 0
KPD1 020401Z 15004KT 25/12 A3016 RMK A01 T02480118  RH  044%=      5-min Rain = 0
KPD1 020402Z 14004KT 25/12 A3016 RMK A01 T02480117  RH  044%=      5-min Rain = 0
KPD1 020403Z 14004KT 25/12 A3016 RMK A01 T02480117  RH  044%=      5-min Rain = 0
KPD1 020404Z 14005KT 25/12 A3016 RMK A01 T02480117  RH  044%=      5-min Rain = 0
KPD1 020405Z 13004KT 25/12 A3016 RMK A01 T02490117  RH  044%=      5-min Rain = 0
KPD1 020406Z 13004KT 25/12 A3016 RMK A01 T02490117  RH  044%=      5-min Rain = 0
KPD1 020407Z 13004KT 25/12 A3016 RMK A01 T02490117  RH  044%=      5-min Rain = 0
KPD1 020408Z 13005KT 25/12 A3016 RMK A01 T02490117  RH  044%=      5-min Rain = 0
KPD1 020409Z 13004KT 25/12 A3016 RMK A01 T02490117  RH  044%=      5-min Rain = 0
KPD1 020410Z 12004KT 25/12 A3016 RMK A01 T02490117  RH  044%=      5-min Rain = 0
KPD1 020411Z 12004KT 25/12 A3016 RMK A01 T02490118  RH  044%=      5-min Rain = 0
KPD1 020412Z 12004KT 25/12 A3016 RMK A01 T02480118  RH  044%=      5-min Rain = 0
KPD1 020413Z 13004KT 25/12 A3016 RMK A01 T02470118  RH  044%=      5-min Rain = 0
KPD1 020414Z 13004KT 25/12 A3016 RMK A01 T02470117  RH  044%=      5-min Rain = 0
KPD1 020415Z 12004KT 25/12 A3016 RMK A01 T02470118  RH  044%=      5-min Rain = 0
KPD1 020416Z 12004KT 25/12 A3016 RMK A01 T02460118  RH  044%=      5-min Rain = 0
KPD1 020417Z 12004KT 25/12 A3016 RMK A01 T02460117  RH  045%=      5-min Rain = 0
KPD1 020418Z 12004KT 25/12 A3016 RMK A01 T02450118  RH  045%=      5-min Rain = 0
KPD1 020419Z 12004KT 25/12 A3016 RMK A01 T02450117  RH  045%=      5-min Rain = 0
KPD1 020420Z 12005KT 25/12 A3016 RMK A01 T02450118  RH  045%=      5-min Rain = 0
KPD1 020421Z 13004KT 25/12 A3016 RMK A01 T02450118  RH  045%=      5-min Rain = 0
KPD1 020422Z 13003KT 25/12 A3016 RMK A01 T02450118  RH  045%=      5-min Rain = 0
KPD1 020423Z 12005KT 24/12 A3016 RMK A01 T02440118  RH  045%=      5-min Rain = 0
KPD1 020424Z 13004KT 24/12 A3016 RMK A01 T02440117  RH  045%=      5-min Rain = 0
KPD1 020425Z 13003KT 24/12 A3016 RMK A01 T02440117  RH  045%=      5-min Rain = 0
KPD1 020426Z 15002KT 24/12 A3016 RMK A01 T02430118  RH  045%=      5-min Rain = 0
KPD1 020427Z 15002KT 24/12 A3016 RMK A01 T02420117  RH  046%=      5-min Rain = 0
KPD1 020428Z 16001KT 24/12 A3016 RMK A01 T02410117  RH  046%=      5-min Rain = 0
KPD1 020429Z 17001KT 24/12 A3016 RMK A01 T02400117  RH  046%=      5-min Rain = 0
KPD1 020430Z 19001KT 24/12 A3016 RMK A01 T02400117  RH  046%=      5-min Rain = 0
KPD1 020431Z 20001KT 24/12 A3016 RMK A01 T02390117  RH  046%=      5-min Rain = 0
KPD1 020432Z 18002KT 24/12 A3016 RMK A01 T02390116  RH  046%=      5-min Rain = 0
KPD1 020433Z 19002KT 24/12 A3016 RMK A01 T02410117  RH  046%=      5-min Rain = 0
KPD1 020434Z 17002KT 24/12 A3016 RMK A01 T02400117  RH  046%=      5-min Rain = 0
KPD1 020435Z 16003KT 24/12 A3016 RMK A01 T02390117  RH  046%=      5-min Rain = 0
KPD1 020436Z 16003KT 24/12 A3016 RMK A01 T02380116  RH  046%=      5-min Rain = 0
KPD1 020437Z 16004KT 24/12 A3016 RMK A01 T02370115  RH  046%=      5-min Rain = 0
KPD1 020438Z 16004KT 24/12 A3017 RMK A01 T02370115  RH  046%=      5-min Rain = 0
KPD1 020439Z 16003KT 24/12 A3017 RMK A01 T02380116  RH  046%=      5-min Rain = 0
KPD1 020440Z 20002KT 24/12 A3017 RMK A01 T02380115  RH  046%=      5-min Rain = 0
KPD1 020441Z 16003KT 24/12 A3017 RMK A01 T02380118  RH  047%=      5-min Rain = 0
KPD1 020442Z 17002KT 24/12 A3017 RMK A01 T02380116  RH  046%=      5-min Rain = 0
KPD1 020443Z 14003KT 24/12 A3017 RMK A01 T02380116  RH  046%=      5-min Rain = 0
KPD1 020444Z 16004KT 24/11 A3017 RMK A01 T02370114  RH  046%=      5-min Rain = 0
KPD1 020445Z 16004KT 24/11 A3017 RMK A01 T02370114  RH  046%=      5-min Rain = 0
KPD1 020446Z 15003KT 24/11 A3017 RMK A01 T02380112  RH  045%=      5-min Rain = 0
KPD1 020447Z 16003KT 24/11 A3017 RMK A01 T02390112  RH  045%=      5-min Rain = 0
KPD1 020448Z 17003KT 24/11 A3017 RMK A01 T02390112  RH  045%=      5-min Rain = 0
KPD1 020449Z 16003KT 24/11 A3017 RMK A01 T02400112  RH  045%=      5-min Rain = 0
KPD1 020450Z 15003KT 24/11 A3017 RMK A01 T02400112  RH  045%=      5-min Rain = 0
KPD1 020451Z 14003KT 24/11 A3017 RMK A01 T02390111  RH  044%=      5-min Rain = 0
KPD1 020452Z 17002KT 24/11 A3017 RMK A01 T02400112  RH  044%=      5-min Rain = 0
KPD1 020453Z 16003KT 24/11 A3017 RMK A01 T02390111  RH  044%=      5-min Rain = 0
KPD1 020454Z 16004KT 24/11 A3017 RMK A01 T02400112  RH  044%=      5-min Rain = 0
KPD1 020455Z 15004KT 24/11 A3017 RMK A01 T02400111  RH  044%=      5-min Rain = 0
KPD1 020456Z 15004KT 24/11 A3017 RMK A01 T02410112  RH  044%=      5-min Rain = 0
KPD1 020457Z 16003KT 24/11 A3017 RMK A01 T02410111  RH  044%=      5-min Rain = 0
KPD1 020458Z 15003KT 24/11 A3017 RMK A01 T02410111  RH  044%=      5-min Rain = 0
KPD1 020459Z 14005KT 24/11 A3017 RMK A01 T02410111  RH  044%=      5-min Rain = 0

Page generated in 0.0856 seconds.